Wetterdaten: Donnerstag, 10.02.2022
Datum Zeit Temp. Aussen Temp. o. S. Temp +5cm Feuchte Auss Luftdruck Regen Sonnenschein Regendauer Solar Windben Empfang
10.02.2022 00:00 7,8 C 7,2 C 4,4 C 91 % 1022,8 hPa 0,0 l/m 0 min 0 min 0 W/m 3,2 km/h (1 Bft) 97,87 %
10.02.2022 00:02 7,8 C 7,2 C 4,4 C 91 % 1022,8 hPa 0,0 l/m 0 min 0 min 0 W/m 0,0 km/h (0 Bft) 7,14 %
10.02.2022 00:04 7,9 C 7,2 C 4,4 C 91 % 1022,7 hPa 0,0 l/m 0 min 0 min 0 W/m 9,7 km/h (2 Bft) 78,95 %
10.02.2022 00:08 7,8 C 7,2 C 4,4 C 91 % 1022,7 hPa 0,0 l/m 0 min 0 min 0 W/m 3,2 km/h (1 Bft) 97,87 %
10.02.2022 00:10 7,8 C 7,2 C 4,4 C 91 % 1022,6 hPa 0,0 l/m 0 min 0 min 0 W/m 3,2 km/h (1 Bft) 97,87 %
10.02.2022 00:12 7,8 C 7,2 C 4,4 C 91 % 1022,7 hPa 0,0 l/m 0 min 0 min 0 W/m 3,2 km/h (1 Bft) 93,62 %
10.02.2022 00:14 7,8 C 7,2 C 4,4 C 91 % 1022,6 hPa 0,0 l/m 0 min 0 min 0 W/m 3,2 km/h (1 Bft) 97,87 %
10.02.2022 00:16 7,8 C 7,2 C 4,4 C 91 % 1022,6 hPa 0,0 l/m 0 min 0 min 0 W/m 3,2 km/h (1 Bft) 97,83 %
10.02.2022 00:18 7,8 C 7,2 C 4,4 C 91 % 1022,6 hPa 0,0 l/m 0 min 0 min 0 W/m 3,2 km/h (1 Bft) 97,87 %
10.02.2022 00:20 7,8 C 7,2 C 4,4 C 91 % 1022,6 hPa 0,0 l/m 0 min 0 min 0 W/m 3,2 km/h (1 Bft) 97,87 %
10.02.2022 00:22 7,8 C 6,7 C 4,4 C 91 % 1022,5 hPa 0,0 l/m 0 min 0 min 0 W/m 6,4 km/h (2 Bft) 97,87 %
10.02.2022 00:24 7,8 C 6,7 C 3,9 C 91 % 1022,6 hPa 0,0 l/m 0 min 0 min 0 W/m 3,2 km/h (1 Bft) 97,87 %
10.02.2022 00:26 7,8 C 6,7 C 3,9 C 91 % 1022,5 hPa 0,0 l/m 0 min 0 min 0 W/m 3,2 km/h (1 Bft) 97,87 %
10.02.2022 00:28 7,8 C 6,7 C 3,9 C 91 % 1022,5 hPa 0,0 l/m 0 min 0 min 0 W/m 3,2 km/h (1 Bft) 95,65 %
10.02.2022 00:30 7,7 C 6,7 C 3,9 C 91 % 1022,5 hPa 0,0 l/m 0 min 0 min 0 W/m 6,4 km/h (2 Bft) 95,74 %
10.02.2022 00:32 7,7 C 6,7 C 3,9 C 91 % 1022,4 hPa 0,0 l/m 0 min 0 min 0 W/m 3,2 km/h (1 Bft) 95,74 %
10.02.2022 00:34 7,7 C 6,7 C 3,9 C 91 % 1022,4 hPa 0,0 l/m 0 min 0 min 0 W/m 6,4 km/h (2 Bft) 100,00 %
10.02.2022 00:36 7,7 C 6,7 C 3,9 C 91 % 1022,3 hPa 0,0 l/m 0 min 0 min 0 W/m 9,7 km/h (2 Bft) 97,87 %
10.02.2022 00:38 7,7 C 6,7 C 3,9 C 91 % 1022,3 hPa 0,0 l/m 0 min 0 min 0 W/m 6,4 km/h (2 Bft) 100,00 %
10.02.2022 00:40 7,7 C 6,7 C 3,9 C 91 % 1022,2 hPa 0,0 l/m 0 min 0 min 0 W/m 6,4 km/h (2 Bft) 97,87 %
10.02.2022 00:42 7,7 C 6,7 C 3,9 C 91 % 1022,2 hPa 0,0 l/m 0 min 0 min 0 W/m 6,4 km/h (2 Bft) 97,87 %
10.02.2022 00:44 7,6 C 6,7 C 3,9 C 92 % 1022,1 hPa 0,0 l/m 0 min 0 min 0 W/m 6,4 km/h (2 Bft) 97,87 %
10.02.2022 00:46 7,6 C 6,7 C 3,9 C 92 % 1022,1 hPa 0,0 l/m 0 min 0 min 0 W/m 3,2 km/h (1 Bft) 95,74 %
10.02.2022 00:48 7,6 C 6,7 C 3,9 C 92 % 1022,1 hPa 0,0 l/m 0 min 0 min 0 W/m 6,4 km/h (2 Bft) 100,00 %
10.02.2022 00:50 7,6 C 6,7 C 3,9 C 91 % 1022,1 hPa 0,0 l/m 0 min 0 min 0 W/m 6,4 km/h (2 Bft) 95,74 %
10.02.2022 00:52 7,6 C 6,7 C 3,9 C 92 % 1022,2 hPa 0,0 l/m 0 min 0 min 0 W/m 6,4 km/h (2 Bft) 97,83 %
10.02.2022 00:54 7,6 C 6,7 C 3,9 C 91 % 1022,1 hPa 0,0 l/m 0 min 0 min 0 W/m 6,4 km/h (2 Bft) 97,87 %
10.02.2022 00:56 7,5 C 6,7 C 3,9 C 91 % 1022,1 hPa 0,0 l/m 0 min 0 min 0 W/m 3,2 km/h (1 Bft) 97,87 %
10.02.2022 00:58 7,5 C 6,7 C 3,9 C 91 % 1022,1 hPa 0,0 l/m 0 min 0 min 0 W/m 3,2 km/h (1 Bft) 95,74 %
10.02.2022 01:00 7,5 C 6,7 C 3,9 C 91 % 1022,1 hPa 0,0 l/m 0 min 0 min 0 W/m 3,2 km/h (1 Bft) 97,87 %
10.02.2022 01:02 7,5 C 6,7 C 3,9 C 91 % 1022,1 hPa 0,0 l/m 0 min 0 min 0 W/m 3,2 km/h (1 Bft) 97,83 %
10.02.2022 01:04 7,4 C 6,7 C 3,9 C 92 % 1022,1 hPa 0,0 l/m 0 min 0 min 0 W/m 3,2 km/h (1 Bft) 97,87 %
10.02.2022 01:06 7,4 C 6,7 C 3,9 C 92 % 1022,0 hPa 0,0 l/m 0 min 0 min 0 W/m 3,2 km/h (1 Bft) 93,62 %
10.02.2022 01:08 7,4 C 6,7 C 3,9 C 92 % 1022,0 hPa 0,0 l/m 0 min 0 min 0 W/m 3,2 km/h (1 Bft) 97,87 %
10.02.2022 01:10 7,4 C 6,7 C 3,9 C 92 % 1022,0 hPa 0,0 l/m 0 min 0 min 0 W/m 6,4 km/h (2 Bft) 97,87 %
10.02.2022 01:12 7,4 C 6,7 C 3,9 C 92 % 1022,0 hPa 0,0 l/m 0 min 0 min 0 W/m 3,2 km/h (1 Bft) 97,87 %
10.02.2022 01:14 7,3 C 6,1 C 3,9 C 92 % 1022,0 hPa 0,0 l/m 0 min 0 min 0 W/m 3,2 km/h (1 Bft) 100,00 %
10.02.2022 01:16 7,3 C 6,1 C 3,9 C 92 % 1022,0 hPa 0,0 l/m 0 min 0 min 0 W/m 3,2 km/h (1 Bft) 97,87 %
10.02.2022 01:18 7,3 C 6,1 C 3,3 C 92 % 1021,9 hPa 0,0 l/m 0 min 0 min 0 W/m 0,0 km/h (0 Bft) 100,00 %
10.02.2022 01:20 7,3 C 6,1 C 3,3 C 92 % 1021,9 hPa 0,0 l/m 0 min 0 min 0 W/m 0,0 km/h (0 Bft) 100,00 %
10.02.2022 01:22 7,3 C 6,1 C 3,3 C 92 % 1021,9 hPa 0,0 l/m 0 min 0 min 0 W/m 0,0 km/h (0 Bft) 97,87 %
10.02.2022 01:24 7,3 C 6,1 C 3,3 C 92 % 1021,9 hPa 0,0 l/m 0 min 0 min 0 W/m 0,0 km/h (0 Bft) 100,00 %
10.02.2022 01:26 7,2 C 6,1 C 3,3 C 92 % 1021,8 hPa 0,0 l/m 0 min 0 min 0 W/m 0,0 km/h (0 Bft) 97,83 %
10.02.2022 01:28 7,2 C 6,1 C 3,3 C 92 % 1021,8 hPa 0,0 l/m 0 min 0 min 0 W/m 0,0 km/h (0 Bft) 100,00 %
10.02.2022 01:30 7,2 C 6,1 C 3,3 C 92 % 1021,8 hPa 0,0 l/m 0 min 0 min 0 W/m 0,0 km/h (0 Bft) 100,00 %
10.02.2022 01:32 7,2 C 6,1 C 3,3 C 92 % 1021,8 hPa 0,0 l/m 0 min 0 min 0 W/m 0,0 km/h (0 Bft) 97,87 %
10.02.2022 01:34 7,2 C 6,1 C 3,3 C 92 % 1021,8 hPa 0,0 l/m 0 min 0 min 0 W/m 0,0 km/h (0 Bft) 97,87 %
10.02.2022 01:36 7,1 C 6,1 C 2,8 C 92 % 1021,8 hPa 0,0 l/m 0 min 0 min 0 W/m 0,0 km/h (0 Bft) 97,87 %
10.02.2022 01:38 7,1 C 5,6 C 2,8 C 92 % 1021,8 hPa 0,0 l/m 0 min 0 min 0 W/m 0,0 km/h (0 Bft) 97,83 %
10.02.2022 01:40 7,1 C 5,6 C 2,8 C 92 % 1021,7 hPa 0,0 l/m 0 min 0 min 0 W/m 3,2 km/h (1 Bft) 97,87 %
10.02.2022 01:42 7,1 C 5,6 C 2,8 C 92 % 1021,7 hPa 0,0 l/m 0 min 0 min 0 W/m 0,0 km/h (0 Bft) 95,74 %
10.02.2022 01:44 7,1 C 5,6 C 2,8 C 92 % 1021,7 hPa 0,0 l/m 0 min 0 min 0 W/m 0,0 km/h (0 Bft) 95,74 %
10.02.2022 01:46 7,0 C 5,6 C 2,8 C 92 % 1021,7 hPa 0,0 l/m 0 min 0 min 0 W/m 0,0 km/h (0 Bft) 95,74 %
10.02.2022 01:48 7,0 C 5,0 C 2,2 C 92 % 1021,7 hPa 0,0 l/m 0 min 0 min 0 W/m 0,0 km/h (0 Bft) 97,87 %
10.02.2022 01:50 6,9 C 5,0 C 2,2 C 92 % 1021,7 hPa 0,0 l/m 0 min 0 min 0 W/m 0,0 km/h (0 Bft) 97,83 %
10.02.2022 01:52 6,9 C 5,0 C 2,2 C 92 % 1021,6 hPa 0,0 l/m 0 min 0 min 0 W/m 0,0 km/h (0 Bft) 97,87 %
10.02.2022 01:54 6,8 C 5,0 C 2,2 C 92 % 1021,6 hPa 0,0 l/m 0 min 0 min 0 W/m 0,0 km/h (0 Bft) 97,87 %
10.02.2022 01:56 6,8 C 5,0 C 2,2 C 92 % 1021,6 hPa 0,0 l/m 0 min 0 min 0 W/m 3,2 km/h (1 Bft) 97,87 %
10.02.2022 01:58 6,7 C 5,0 C 2,2 C 92 % 1021,6 hPa 0,0 l/m 0 min 0 min 0 W/m 3,2 km/h (1 Bft) 97,87 %
10.02.2022 02:00 6,7 C 4,4 C 2,2 C 92 % 1021,6 hPa 0,0 l/m 0 min 0 min 0 W/m 0,0 km/h (0 Bft) 97,87 %
10.02.2022 02:02 6,7 C 4,4 C 1,7 C 92 % 1021,6 hPa 0,0 l/m 0 min 0 min 0 W/m 0,0 km/h (0 Bft) 95,65 %
10.02.2022 02:04 6,6 C 4,4 C 1,7 C 92 % 1021,6 hPa 0,0 l/m 0 min 0 min 0 W/m 0,0 km/h (0 Bft) 95,74 %
10.02.2022 02:06 6,6 C 4,4 C 1,7 C 92 % 1021,5 hPa 0,0 l/m 0 min 0 min 0 W/m 0,0 km/h (0 Bft) 97,87 %
10.02.2022 02:08 6,5 C 4,4 C 1,7 C 91 % 1021,5 hPa 0,0 l/m 0 min 0 min 0 W/m 0,0 km/h (0 Bft) 97,87 %
10.02.2022 02:10 6,4 C 4,4 C 1,7 C 91 % 1021,5 hPa 0,0 l/m 0 min 0 min 0 W/m 0,0 km/h (0 Bft) 97,87 %
10.02.2022 02:12 6,4 C 4,4 C 1,7 C 91 % 1021,4 hPa 0,0 l/m 0 min 0 min 0 W/m 0,0 km/h (0 Bft) 95,65 %
10.02.2022 02:14 6,3 C 4,4 C 1,7 C 91 % 1021,4 hPa 0,0 l/m 0 min 0 min 0 W/m 0,0 km/h (0 Bft) 97,87 %
10.02.2022 02:16 6,3 C 4,4 C 1,7 C 91 % 1021,4 hPa 0,0 l/m 0 min 0 min 0 W/m 0,0 km/h (0 Bft) 100,00 %
10.02.2022 02:18 6,2 C 4,4 C 1,7 C 92 % 1021,3 hPa 0,0 l/m 0 min 0 min 0 W/m 0,0 km/h (0 Bft) 100,00 %
10.02.2022 02:20 6,2 C 4,4 C 1,7 C 92 % 1021,4 hPa 0,0 l/m 0 min 0 min 0 W/m 0,0 km/h (0 Bft) 100,00 %
10.02.2022 02:22 6,1 C 4,4 C 1,7 C 92 % 1021,4 hPa 0,0 l/m 0 min 0 min 0 W/m 6,4 km/h (2 Bft) 100,00 %
10.02.2022 02:24 6,1 C 4,4 C 1,7 C 92 % 1021,4 hPa 0,0 l/m 0 min 0 min 0 W/m 6,4 km/h (2 Bft) 97,83 %
10.02.2022 02:26 6,0 C 4,4 C 1,7 C 91 % 1021,3 hPa 0,0 l/m 0 min 0 min 0 W/m 3,2 km/h (1 Bft) 100,00 %
10.02.2022 02:28 5,9 C 4,4 C 1,7 C 92 % 1021,3 hPa 0,0 l/m 0 min 0 min 0 W/m 6,4 km/h (2 Bft) 100,00 %
10.02.2022 02:30 5,9 C 4,4 C 1,7 C 92 % 1021,4 hPa 0,0 l/m 0 min 0 min 0 W/m 3,2 km/h (1 Bft) 100,00 %
10.02.2022 02:32 5,9 C 4,4 C 1,7 C 92 % 1021,3 hPa 0,0 l/m 0 min 0 min 0 W/m 3,2 km/h (1 Bft) 97,87 %
10.02.2022 02:34 5,9 C 4,4 C 1,7 C 92 % 1021,3 hPa 0,0 l/m 0 min 0 min 0 W/m 3,2 km/h (1 Bft) 97,87 %
10.02.2022 02:36 5,8 C 4,4 C 1,7 C 92 % 1021,3 hPa 0,0 l/m 0 min 0 min 0 W/m 6,4 km/h (2 Bft) 97,83 %
10.02.2022 02:38 5,8 C 4,4 C 2,2 C 92 % 1021,3 hPa 0,0 l/m 0 min 0 min 0 W/m 3,2 km/h (1 Bft) 97,87 %
10.02.2022 02:40 5,8 C 4,4 C 2,2 C 92 % 1021,2 hPa 0,0 l/m 0 min 0 min 0 W/m 3,2 km/h (1 Bft) 93,62 %
10.02.2022 02:42 5,7 C 4,4 C 2,2 C 92 % 1021,1 hPa 0,0 l/m 0 min 0 min 0 W/m 6,4 km/h (2 Bft) 97,87 %
10.02.2022 02:44 5,7 C 4,4 C 2,2 C 92 % 1021,1 hPa 0,0 l/m 0 min 0 min 0 W/m 3,2 km/h (1 Bft) 95,74 %
10.02.2022 02:46 5,7 C 4,4 C 2,2 C 93 % 1021,2 hPa 0,0 l/m 0 min 0 min 0 W/m 6,4 km/h (2 Bft) 97,87 %
10.02.2022 02:48 5,7 C 4,4 C 2,2 C 93 % 1021,1 hPa 0,0 l/m 0 min 0 min 0 W/m 6,4 km/h (2 Bft) 97,83 %
10.02.2022 02:50 5,7 C 4,4 C 2,2 C 93 % 1021,1 hPa 0,0 l/m 0 min 0 min 0 W/m 6,4 km/h (2 Bft) 97,87 %
10.02.2022 02:52 5,7 C 4,4 C 2,2 C 93 % 1021,1 hPa 0,0 l/m 0 min 0 min 0 W/m 6,4 km/h (2 Bft) 97,87 %
10.02.2022 02:54 5,6 C 4,4 C 2,2 C 93 % 1021,1 hPa 0,0 l/m 0 min 0 min 0 W/m 6,4 km/h (2 Bft) 97,87 %
10.02.2022 02:56 5,6 C 4,4 C 2,2 C 93 % 1021,1 hPa 0,0 l/m 0 min 0 min 0 W/m 12,9 km/h (3 Bft) 93,62 %
10.02.2022 02:58 5,6 C 5,0 C 2,2 C 93 % 1021,1 hPa 0,0 l/m 0 min 0 min 0 W/m 6,4 km/h (2 Bft) 95,74 %
10.02.2022 03:00 5,6 C 5,0 C 2,2 C 93 % 1021,0 hPa 0,0 l/m 0 min 0 min 0 W/m 9,7 km/h (2 Bft) 95,65 %
10.02.2022 03:02 5,6 C 5,0 C 2,2 C 93 % 1021,0 hPa 0,0 l/m 0 min 0 min 0 W/m 6,4 km/h (2 Bft) 97,87 %
10.02.2022 03:04 5,6 C 5,0 C 2,2 C 93 % 1020,9 hPa 0,0 l/m 0 min 0 min 0 W/m 12,9 km/h (3 Bft) 95,74 %
10.02.2022 03:06 5,6 C 5,0 C 2,2 C 94 % 1021,0 hPa 0,0 l/m 0 min 0 min 0 W/m 9,7 km/h (2 Bft) 97,87 %
10.02.2022 03:08 5,6 C 5,0 C 2,2 C 94 % 1020,9 hPa 0,0 l/m 0 min 0 min 0 W/m 6,4 km/h (2 Bft) 95,74 %
10.02.2022 03:10 5,6 C 5,0 C 2,2 C 94 % 1020,9 hPa 0,0 l/m 0 min 0 min 0 W/m 3,2 km/h (1 Bft) 97,87 %
10.02.2022 03:12 5,6 C 5,0 C 2,2 C 94 % 1020,9 hPa 0,0 l/m 0 min 0 min 0 W/m 6,4 km/h (2 Bft) 97,83 %
10.02.2022 03:14 5,6 C 5,0 C 2,2 C 94 % 1020,9 hPa 0,0 l/m 0 min 0 min 0 W/m 6,4 km/h (2 Bft) 97,87 %
10.02.2022 03:16 5,6 C 5,0 C 2,2 C 94 % 1020,8 hPa 0,0 l/m 0 min 0 min 0 W/m 6,4 km/h (2 Bft) 97,87 %
10.02.2022 03:18 5,6 C 5,0 C 2,2 C 94 % 1020,7 hPa 0,0 l/m 0 min 0 min 0 W/m 12,9 km/h (3 Bft) 97,87 %
10.02.2022 03:20 5,6 C 5,0 C 2,2 C 94 % 1020,7 hPa 0,0 l/m 0 min 0 min 0 W/m 6,4 km/h (2 Bft) 97,87 %
10.02.2022 03:22 5,6 C 5,0 C 2,2 C 94 % 1020,7 hPa 0,0 l/m 0 min 0 min 0 W/m 6,4 km/h (2 Bft) 95,74 %
10.02.2022 03:24 5,6 C 5,0 C 2,2 C 94 % 1020,7 hPa 0,0 l/m 0 min 0 min 0 W/m 6,4 km/h (2 Bft) 95,65 %
10.02.2022 03:26 5,6 C 5,0 C 2,2 C 94 % 1020,7 hPa 0,0 l/m 0 min 0 min 0 W/m 9,7 km/h (2 Bft) 97,87 %
10.02.2022 03:28 5,6 C 5,0 C 2,2 C 94 % 1020,6 hPa 0,0 l/m 0 min 0 min 0 W/m 16,1 km/h (3 Bft) 97,87 %
10.02.2022 03:30 5,6 C 5,0 C 2,2 C 94 % 1020,6 hPa 0,0 l/m 0 min 0 min 0 W/m 6,4 km/h (2 Bft) 97,87 %
10.02.2022 03:32 5,6 C 5,0 C 2,2 C 94 % 1020,5 hPa 0,0 l/m 0 min 0 min 0 W/m 6,4 km/h (2 Bft) 97,87 %
10.02.2022 03:34 5,6 C 5,0 C 2,2 C 95 % 1020,5 hPa 0,0 l/m 0 min 0 min 0 W/m 6,4 km/h (2 Bft) 95,74 %
10.02.2022 03:36 5,6 C 5,0 C 2,2 C 95 % 1020,5 hPa 0,0 l/m 0 min 0 min 0 W/m 6,4 km/h (2 Bft) 97,83 %
10.02.2022 03:38 5,6 C 5,0 C 2,2 C 95 % 1020,5 hPa 0,0 l/m 0 min 0 min 0 W/m 12,9 km/h (3 Bft) 97,87 %
10.02.2022 03:40 5,6 C 5,0 C 2,8 C 95 % 1020,5 hPa 0,0 l/m 0 min 0 min 0 W/m 6,4 km/h (2 Bft) 93,62 %
10.02.2022 03:42 5,6 C 5,0 C 2,8 C 95 % 1020,5 hPa 0,0 l/m 0 min 0 min 0 W/m 9,7 km/h (2 Bft) 97,87 %
10.02.2022 03:44 5,6 C 5,0 C 2,8 C 95 % 1020,5 hPa 0,0 l/m 0 min 0 min 0 W/m 6,4 km/h (2 Bft) 95,74 %
10.02.2022 03:46 5,6 C 5,0 C 2,8 C 95 % 1020,4 hPa 0,0 l/m 0 min 0 min 0 W/m 9,7 km/h (2 Bft) 100,00 %
10.02.2022 03:48 5,6 C 5,0 C 2,8 C 95 % 1020,4 hPa 0,0 l/m 0 min 0 min 0 W/m 6,4 km/h (2 Bft) 97,87 %
10.02.2022 03:50 5,6 C 5,0 C 2,8 C 95 % 1020,4 hPa 0,0 l/m 0 min 0 min 0 W/m 6,4 km/h (2 Bft) 97,87 %
10.02.2022 03:52 5,6 C 5,0 C 2,8 C 95 % 1020,4 hPa 0,0 l/m 0 min 0 min 0 W/m 6,4 km/h (2 Bft) 97,87 %
10.02.2022 03:54 5,6 C 5,0 C 2,8 C 95 % 1020,3 hPa 0,0 l/m 0 min 0 min 0 W/m 3,2 km/h (1 Bft) 95,74 %
10.02.2022 03:56 5,6 C 5,0 C 2,8 C 95 % 1020,3 hPa 0,0 l/m 0 min 0 min 0 W/m 0,0 km/h (0 Bft) 95,74 %
10.02.2022 03:58 5,6 C 5,0 C 2,2 C 95 % 1020,3 hPa 0,0 l/m 0 min 0 min 0 W/m 3,2 km/h (1 Bft) 95,65 %
10.02.2022 04:00 5,6 C 5,0 C 2,2 C 95 % 1020,2 hPa 0,0 l/m 0 min 0 min 0 W/m 0,0 km/h (0 Bft) 97,87 %
10.02.2022 04:02 5,6 C 4,4 C 2,2 C 95 % 1020,1 hPa 0,0 l/m 0 min 0 min 0 W/m 6,4 km/h (2 Bft) 96,55 %
10.02.2022 04:04 5,5 C 4,4 C 2,2 C 95 % 1020,0 hPa 0,0 l/m 0 min 0 min 0 W/m 3,2 km/h (1 Bft) 100,00 %
10.02.2022 04:06 5,5 C 4,4 C 2,2 C 95 % 1019,9 hPa 0,0 l/m 0 min 0 min 0 W/m 3,2 km/h (1 Bft) 97,87 %
10.02.2022 04:11 5,4 C 4,4 C 2,2 C 95 % 1019,8 hPa 0,0 l/m 0 min 0 min 0 W/m 3,2 km/h (1 Bft) 97,06 %
10.02.2022 04:12 5,4 C 4,4 C 2,2 C 95 % 1019,8 hPa 0,0 l/m 0 min 0 min 0 W/m 6,4 km/h (2 Bft) 90,91 %
10.02.2022 04:14 5,4 C 4,4 C 2,2 C 95 % 1019,8 hPa 0,0 l/m 0 min 0 min 0 W/m 6,4 km/h (2 Bft) 93,62 %
10.02.2022 04:16 5,3 C 4,4 C 2,2 C 95 % 1019,8 hPa 0,0 l/m 0 min 0 min 0 W/m 3,2 km/h (1 Bft) 95,74 %
10.02.2022 04:18 5,3 C 3,9 C 1,7 C 95 % 1019,7 hPa 0,0 l/m 0 min 0 min 0 W/m 6,4 km/h (2 Bft) 97,87 %
10.02.2022 04:20 5,3 C 3,9 C 1,7 C 95 % 1019,6 hPa 0,0 l/m 0 min 0 min 0 W/m 6,4 km/h (2 Bft) 95,74 %
10.02.2022 04:22 5,2 C 3,9 C 1,7 C 95 % 1019,6 hPa 0,0 l/m 0 min 0 min 0 W/m 6,4 km/h (2 Bft) 93,48 %
10.02.2022 04:24 5,2 C 3,9 C 1,7 C 95 % 1019,5 hPa 0,0 l/m 0 min 0 min 0 W/m 6,4 km/h (2 Bft) 97,87 %
10.02.2022 04:26 5,1 C 3,9 C 1,7 C 95 % 1019,4 hPa 0,0 l/m 0 min 0 min 0 W/m 16,1 km/h (3 Bft) 97,87 %
10.02.2022 04:28 5,1 C 3,9 C 1,7 C 95 % 1019,4 hPa 0,0 l/m 0 min 0 min 0 W/m 12,9 km/h (3 Bft) 100,00 %
10.02.2022 04:30 5,1 C 3,9 C 1,7 C 95 % 1019,3 hPa 0,0 l/m 0 min 0 min 0 W/m 12,9 km/h (3 Bft) 100,00 %
10.02.2022 04:32 5,0 C 3,9 C 1,7 C 95 % 1019,2 hPa 0,0 l/m 0 min 0 min 0 W/m 12,9 km/h (3 Bft) 97,87 %
10.02.2022 04:38 4,8 C 3,9 C 1,7 C 95 % 1019,2 hPa 0,0 l/m 0 min 0 min 0 W/m 12,9 km/h (3 Bft) 100,00 %
10.02.2022 04:40 4,8 C 3,9 C 1,7 C 95 % 1019,2 hPa 0,0 l/m 0 min 0 min 0 W/m 12,9 km/h (3 Bft) 97,14 %
10.02.2022 04:45 4,7 C 3,9 C 1,7 C 95 % 1019,3 hPa 0,0 l/m 0 min 0 min 0 W/m 12,9 km/h (3 Bft) 100,00 %
10.02.2022 04:46 4,7 C 3,9 C 1,7 C 95 % 1019,3 hPa 0,0 l/m 0 min 0 min 0 W/m 3,2 km/h (1 Bft) 100,00 %
10.02.2022 04:48 4,7 C 3,9 C 1,7 C 95 % 1019,3 hPa 0,0 l/m 0 min 0 min 0 W/m 6,4 km/h (2 Bft) 100,00 %
10.02.2022 04:50 4,6 C 3,3 C 1,7 C 95 % 1019,4 hPa 0,0 l/m 0 min 0 min 0 W/m 12,9 km/h (3 Bft) 100,00 %
10.02.2022 04:52 4,6 C 3,3 C 1,7 C 95 % 1019,4 hPa 0,0 l/m 0 min 0 min 0 W/m 6,4 km/h (2 Bft) 100,00 %
10.02.2022 04:54 4,6 C 3,3 C 1,1 C 95 % 1019,3 hPa 0,0 l/m 0 min 0 min 0 W/m 12,9 km/h (3 Bft) 100,00 %
10.02.2022 04:56 4,6 C 3,3 C 1,1 C 95 % 1019,4 hPa 0,0 l/m 0 min 0 min 0 W/m 12,9 km/h (3 Bft) 97,87 %
10.02.2022 04:58 4,5 C 3,3 C 1,1 C 95 % 1019,3 hPa 0,0 l/m 0 min 0 min 0 W/m 6,4 km/h (2 Bft) 100,00 %
10.02.2022 05:00 4,5 C 3,3 C 1,1 C 95 % 1019,4 hPa 0,0 l/m 0 min 0 min 0 W/m 6,4 km/h (2 Bft) 100,00 %
10.02.2022 05:02 4,4 C 3,3 C 1,1 C 95 % 1019,4 hPa 0,0 l/m 0 min 0 min 0 W/m 3,2 km/h (1 Bft) 100,00 %
10.02.2022 05:04 4,4 C 3,3 C 1,1 C 95 % 1019,5 hPa 0,0 l/m 0 min 0 min 0 W/m 0,0 km/h (0 Bft) 100,00 %
10.02.2022 05:06 4,4 C 3,3 C 1,1 C 95 % 1019,5 hPa 0,0 l/m 0 min 0 min 0 W/m 0,0 km/h (0 Bft) 97,87 %
10.02.2022 05:08 4,4 C 3,3 C 1,1 C 95 % 1019,5 hPa 0,0 l/m 0 min 0 min 0 W/m 3,2 km/h (1 Bft) 100,00 %
10.02.2022 05:10 4,4 C 3,3 C 1,1 C 95 % 1019,5 hPa 0,0 l/m 0 min 0 min 0 W/m 3,2 km/h (1 Bft) 100,00 %
10.02.2022 05:12 4,3 C 3,3 C 1,1 C 95 % 1019,5 hPa 0,0 l/m 0 min 0 min 0 W/m 0,0 km/h (0 Bft) 100,00 %
10.02.2022 05:14 4,3 C 2,8 C 1,1 C 95 % 1019,5 hPa 0,0 l/m 0 min 0 min 0 W/m 0,0 km/h (0 Bft) 100,00 %
10.02.2022 05:16 4,3 C 2,8 C 1,1 C 95 % 1019,5 hPa 0,0 l/m 0 min 0 min 0 W/m 0,0 km/h (0 Bft) 100,00 %
10.02.2022 05:18 4,3 C 2,8 C 1,1 C 95 % 1019,6 hPa 0,0 l/m 0 min 0 min 0 W/m 0,0 km/h (0 Bft) 100,00 %
10.02.2022 05:20 4,3 C 2,8 C 1,1 C 95 % 1019,6 hPa 0,0 l/m 0 min 0 min 0 W/m 0,0 km/h (0 Bft) 68,09 %
10.02.2022 05:22 4,2 C 3,3 C 1,1 C 95 % 1019,6 hPa 0,0 l/m 0 min 0 min 0 W/m 0,0 km/h (0 Bft) 85,29 %
10.02.2022 05:24 4,2 C 3,3 C 1,1 C 95 % 1019,6 hPa 0,0 l/m 0 min 0 min 0 W/m 0,0 km/h (0 Bft) 100,00 %
10.02.2022 05:26 4,2 C 3,3 C 1,1 C 95 % 1019,6 hPa 0,0 l/m 0 min 0 min 0 W/m 0,0 km/h (0 Bft) 100,00 %
10.02.2022 05:28 4,2 C 3,3 C 1,1 C 95 % 1019,7 hPa 0,0 l/m 0 min 0 min 0 W/m 0,0 km/h (0 Bft) 100,00 %
10.02.2022 05:30 4,2 C 3,3 C 1,1 C 96 % 1019,6 hPa 0,0 l/m 0 min 0 min 0 W/m 0,0 km/h (0 Bft) 100,00 %
10.02.2022 05:32 4,2 C 3,3 C 1,1 C 96 % 1019,7 hPa 0,0 l/m 0 min 0 min 0 W/m 3,2 km/h (1 Bft) 100,00 %
10.02.2022 05:34 4,2 C 3,3 C 1,1 C 95 % 1019,7 hPa 0,0 l/m 0 min 0 min 0 W/m 6,4 km/h (2 Bft) 100,00 %
10.02.2022 05:36 4,2 C 3,3 C 1,7 C 95 % 1019,6 hPa 0,0 l/m 0 min 0 min 0 W/m 3,2 km/h (1 Bft) 97,87 %
10.02.2022 05:38 4,2 C 3,9 C 1,7 C 96 % 1019,6 hPa 0,0 l/m 0 min 0 min 0 W/m 12,9 km/h (3 Bft) 100,00 %
10.02.2022 05:40 4,2 C 3,9 C 1,7 C 96 % 1019,5 hPa 0,0 l/m 0 min 0 min 0 W/m 12,9 km/h (3 Bft) 100,00 %
10.02.2022 05:42 4,2 C 3,9 C 1,7 C 96 % 1019,5 hPa 0,0 l/m 0 min 0 min 0 W/m 6,4 km/h (2 Bft) 100,00 %
10.02.2022 05:44 4,2 C 3,9 C 1,7 C 96 % 1019,5 hPa 0,0 l/m 0 min 0 min 0 W/m 12,9 km/h (3 Bft) 100,00 %
10.02.2022 05:46 4,2 C 3,9 C 1,7 C 96 % 1019,5 hPa 0,0 l/m 0 min 0 min 0 W/m 6,4 km/h (2 Bft) 100,00 %
10.02.2022 05:48 4,3 C 3,9 C 1,7 C 96 % 1019,4 hPa 0,0 l/m 0 min 0 min 0 W/m 12,9 km/h (3 Bft) 100,00 %
10.02.2022 05:50 4,3 C 3,9 C 1,7 C 96 % 1019,4 hPa 0,0 l/m 0 min 0 min 0 W/m 12,9 km/h (3 Bft) 100,00 %
10.02.2022 05:52 4,3 C 3,9 C 1,7 C 96 % 1019,4 hPa 0,0 l/m 0 min 0 min 0 W/m 12,9 km/h (3 Bft) 97,87 %
10.02.2022 05:54 4,3 C 3,9 C 1,7 C 96 % 1019,5 hPa 0,0 l/m 0 min 0 min 0 W/m 6,4 km/h (2 Bft) 97,87 %
10.02.2022 05:56 4,3 C 3,9 C 1,7 C 96 % 1019,5 hPa 0,0 l/m 0 min 0 min 0 W/m 12,9 km/h (3 Bft) 100,00 %
10.02.2022 05:58 4,3 C 3,9 C 1,7 C 96 % 1019,5 hPa 0,0 l/m 0 min 0 min 0 W/m 12,9 km/h (3 Bft) 100,00 %
10.02.2022 06:00 4,3 C 3,9 C 1,7 C 96 % 1019,4 hPa 0,0 l/m 0 min 0 min 0 W/m 6,4 km/h (2 Bft) 97,87 %
10.02.2022 06:02 4,3 C 3,9 C 1,7 C 96 % 1019,4 hPa 0,0 l/m 0 min 0 min 0 W/m 9,7 km/h (2 Bft) 97,87 %
10.02.2022 06:04 4,3 C 3,9 C 1,7 C 96 % 1019,4 hPa 0,0 l/m 0 min 0 min 0 W/m 9,7 km/h (2 Bft) 97,87 %
10.02.2022 06:08 4,3 C 3,9 C 1,7 C 96 % 1019,4 hPa 0,0 l/m 0 min 0 min 0 W/m 9,7 km/h (2 Bft) 94,74 %
10.02.2022 06:10 4,3 C 3,9 C 1,7 C 96 % 1019,3 hPa 0,0 l/m 0 min 0 min 0 W/m 9,7 km/h (2 Bft) 93,48 %
10.02.2022 06:12 4,3 C 3,9 C 1,7 C 96 % 1019,3 hPa 0,0 l/m 0 min 0 min 0 W/m 6,4 km/h (2 Bft) 91,49 %
10.02.2022 06:14 4,3 C 3,9 C 1,7 C 96 % 1019,3 hPa 0,0 l/m 0 min 0 min 0 W/m 9,7 km/h (2 Bft) 91,49 %
10.02.2022 06:16 4,3 C 3,9 C 1,7 C 96 % 1019,2 hPa 0,0 l/m 0 min 0 min 0 W/m 9,7 km/h (2 Bft) 93,62 %
10.02.2022 06:18 4,3 C 3,9 C 1,7 C 96 % 1019,3 hPa 0,0 l/m 0 min 0 min 0 W/m 6,4 km/h (2 Bft) 93,62 %
10.02.2022 06:20 4,3 C 3,9 C 1,7 C 96 % 1019,2 hPa 0,0 l/m 0 min 0 min 0 W/m 6,4 km/h (2 Bft) 93,62 %
10.02.2022 06:22 4,3 C 3,9 C 1,7 C 96 % 1019,2 hPa 0,0 l/m 0 min 0 min 0 W/m 6,4 km/h (2 Bft) 93,48 %
10.02.2022 06:24 4,4 C 3,9 C 1,7 C 96 % 1019,2 hPa 0,0 l/m 0 min 0 min 0 W/m 12,9 km/h (3 Bft) 93,62 %
10.02.2022 06:26 4,4 C 3,9 C 1,7 C 96 % 1019,3 hPa 0,0 l/m 0 min 0 min 0 W/m 6,4 km/h (2 Bft) 93,62 %
10.02.2022 06:28 4,4 C 3,9 C 1,7 C 96 % 1019,3 hPa 0,0 l/m 0 min 0 min 0 W/m 6,4 km/h (2 Bft) 93,62 %
10.02.2022 06:30 4,4 C 3,9 C 1,7 C 96 % 1019,3 hPa 0,0 l/m 0 min 0 min 0 W/m 6,4 km/h (2 Bft) 93,62 %
10.02.2022 06:32 4,4 C 3,9 C 1,7 C 96 % 1019,3 hPa 0,0 l/m 0 min 0 min 0 W/m 6,4 km/h (2 Bft) 91,49 %
10.02.2022 06:34 4,4 C 3,9 C 1,7 C 96 % 1019,3 hPa 0,0 l/m 0 min 0 min 0 W/m 3,2 km/h (1 Bft) 93,48 %
10.02.2022 06:36 4,4 C 3,9 C 1,7 C 96 % 1019,3 hPa 0,0 l/m 0 min 0 min 0 W/m 3,2 km/h (1 Bft) 93,62 %
10.02.2022 06:38 4,4 C 3,9 C 1,7 C 96 % 1019,3 hPa 0,0 l/m 0 min 0 min 0 W/m 3,2 km/h (1 Bft) 93,62 %
10.02.2022 06:40 4,4 C 3,9 C 1,7 C 96 % 1019,3 hPa 0,0 l/m 0 min 0 min 0 W/m 3,2 km/h (1 Bft) 95,74 %
10.02.2022 06:42 4,4 C 3,9 C 2,2 C 96 % 1019,4 hPa 0,0 l/m 0 min 0 min 0 W/m 6,4 km/h (2 Bft) 93,62 %
10.02.2022 06:44 4,4 C 3,9 C 2,2 C 96 % 1019,4 hPa 0,0 l/m 0 min 0 min 0 W/m 6,4 km/h (2 Bft) 97,87 %
10.02.2022 06:46 4,4 C 3,9 C 2,2 C 96 % 1019,4 hPa 0,0 l/m 0 min 0 min 0 W/m 0,0 km/h (0 Bft) 97,83 %
10.02.2022 06:48 4,4 C 3,9 C 2,2 C 96 % 1019,4 hPa 0,0 l/m 0 min 0 min 0 W/m 0,0 km/h (0 Bft) 95,74 %
10.02.2022 06:50 4,4 C 3,9 C 2,2 C 96 % 1019,4 hPa 0,0 l/m 0 min 0 min 0 W/m 0,0 km/h (0 Bft) 95,74 %
10.02.2022 06:52 4,4 C 4,4 C 2,2 C 97 % 1019,4 hPa 0,0 l/m 0 min 0 min 0 W/m 0,0 km/h (0 Bft) 97,87 %
10.02.2022 06:54 4,5 C 4,4 C 2,2 C 97 % 1019,4 hPa 0,0 l/m 0 min 0 min 0 W/m 0,0 km/h (0 Bft) 97,87 %
10.02.2022 06:56 4,5 C 4,4 C 2,2 C 97 % 1019,4 hPa 0,0 l/m 0 min 0 min 0 W/m 0,0 km/h (0 Bft) 95,65 %
10.02.2022 06:58 4,5 C 4,4 C 2,2 C 97 % 1019,3 hPa 0,0 l/m 0 min 0 min 0 W/m 0,0 km/h (0 Bft) 97,87 %
10.02.2022 07:00 4,5 C 4,4 C 2,2 C 97 % 1019,2 hPa 0,0 l/m 0 min 0 min 0 W/m 0,0 km/h (0 Bft) 100,00 %
10.02.2022 07:02 4,6 C 4,4 C 2,2 C 96 % 1019,1 hPa 0,0 l/m 0 min 0 min 0 W/m 0,0 km/h (0 Bft) 97,87 %
10.02.2022 07:04 4,6 C 4,4 C 2,2 C 96 % 1019,1 hPa 0,0 l/m 0 min 0 min 0 W/m 0,0 km/h (0 Bft) 100,00 %
10.02.2022 07:06 4,6 C 4,4 C 2,2 C 96 % 1019,1 hPa 0,0 l/m 0 min 0 min 0 W/m 0,0 km/h (0 Bft) 97,87 %
10.02.2022 07:08 4,6 C 4,4 C 2,2 C 96 % 1019,1 hPa 0,0 l/m 0 min 0 min 0 W/m 0,0 km/h (0 Bft) 100,00 %
10.02.2022 07:10 4,6 C 4,4 C 2,2 C 97 % 1019,1 hPa 0,0 l/m 0 min 0 min 0 W/m 0,0 km/h (0 Bft) 97,87 %
10.02.2022 07:12 4,6 C 4,4 C 2,2 C 97 % 1019,1 hPa 0,0 l/m 0 min 0 min 0 W/m 0,0 km/h (0 Bft) 97,87 %
10.02.2022 07:14 4,6 C 4,4 C 2,2 C 97 % 1019,1 hPa 0,0 l/m 0 min 0 min 0 W/m 0,0 km/h (0 Bft) 97,87 %
10.02.2022 07:16 4,6 C 4,4 C 2,2 C 97 % 1019,2 hPa 0,0 l/m 0 min 0 min 0 W/m 0,0 km/h (0 Bft) 100,00 %
10.02.2022 07:18 4,6 C 4,4 C 2,2 C 97 % 1019,2 hPa 0,0 l/m 0 min 0 min 0 W/m 0,0 km/h (0 Bft) 100,00 %
10.02.2022 07:20 4,6 C 4,4 C 2,2 C 97 % 1019,2 hPa 0,0 l/m 0 min 0 min 0 W/m 0,0 km/h (0 Bft) 100,00 %
10.02.2022 07:22 4,6 C 4,4 C 2,2 C 97 % 1019,2 hPa 0,0 l/m 0 min 0 min 0 W/m 0,0 km/h (0 Bft) 97,87 %
10.02.2022 07:24 4,6 C 4,4 C 2,2 C 97 % 1019,2 hPa 0,0 l/m 0 min 0 min 0 W/m 0,0 km/h (0 Bft) 100,00 %
10.02.2022 07:26 4,6 C 4,4 C 2,2 C 97 % 1019,2 hPa 0,0 l/m 0 min 0 min 0 W/m 0,0 km/h (0 Bft) 97,87 %
10.02.2022 07:28 4,6 C 4,4 C 2,2 C 97 % 1019,2 hPa 0,0 l/m 0 min 0 min 0 W/m 0,0 km/h (0 Bft) 100,00 %
10.02.2022 07:30 4,6 C 4,4 C 2,2 C 97 % 1019,2 hPa 0,0 l/m 0 min 0 min 0 W/m 0,0 km/h (0 Bft) 100,00 %
10.02.2022 07:32 4,6 C 4,4 C 2,2 C 97 % 1019,2 hPa 0,0 l/m 0 min 0 min 0 W/m 0,0 km/h (0 Bft) 100,00 %
10.02.2022 07:34 4,6 C 4,4 C 2,2 C 97 % 1019,2 hPa 0,0 l/m 0 min 0 min 0 W/m 0,0 km/h (0 Bft) 97,87 %
10.02.2022 07:36 4,7 C 4,4 C 2,2 C 97 % 1019,3 hPa 0,0 l/m 0 min 0 min 0 W/m 0,0 km/h (0 Bft) 100,00 %
10.02.2022 07:38 4,7 C 4,4 C 2,2 C 97 % 1019,3 hPa 0,0 l/m 0 min 0 min 0 W/m 0,0 km/h (0 Bft) 100,00 %
10.02.2022 07:40 4,7 C 4,4 C 2,2 C 97 % 1019,3 hPa 0,0 l/m 0 min 0 min 0 W/m 0,0 km/h (0 Bft) 100,00 %
10.02.2022 07:42 4,7 C 4,4 C 2,2 C 97 % 1019,4 hPa 0,0 l/m 0 min 0 min 0 W/m 0,0 km/h (0 Bft) 100,00 %
10.02.2022 07:44 4,7 C 4,4 C 2,2 C 97 % 1019,4 hPa 0,0 l/m 0 min 0 min 0 W/m 0,0 km/h (0 Bft) 100,00 %
10.02.2022 07:46 4,7 C 4,4 C 2,2 C 97 % 1019,4 hPa 0,0 l/m 0 min 0 min 0 W/m 0,0 km/h (0 Bft) 100,00 %
10.02.2022 07:48 4,7 C 4,4 C 2,2 C 97 % 1019,4 hPa 0,0 l/m 0 min 0 min 0 W/m 0,0 km/h (0 Bft) 100,00 %
10.02.2022 07:50 4,7 C 4,4 C 2,2 C 97 % 1019,4 hPa 0,0 l/m 0 min 0 min 0 W/m 3,2 km/h (1 Bft) 100,00 %
10.02.2022 07:52 4,7 C 4,4 C 2,2 C 97 % 1019,4 hPa 0,0 l/m 0 min 0 min 0 W/m 3,2 km/h (1 Bft) 97,87 %
10.02.2022 07:54 4,8 C 4,4 C 2,2 C 97 % 1019,4 hPa 0,0 l/m 0 min 0 min 0 W/m 0,0 km/h (0 Bft) 100,00 %
10.02.2022 07:56 4,8 C 4,4 C 2,2 C 97 % 1019,4 hPa 0,0 l/m 0 min 0 min 0 W/m 3,2 km/h (1 Bft) 97,83 %
10.02.2022 07:58 4,8 C 4,4 C 2,2 C 97 % 1019,4 hPa 0,0 l/m 0 min 0 min 0 W/m 3,2 km/h (1 Bft) 97,87 %
10.02.2022 08:00 4,8 C 4,4 C 2,2 C 97 % 1019,4 hPa 0,0 l/m 0 min 0 min 0 W/m 0,0 km/h (0 Bft) 97,87 %
10.02.2022 08:02 4,9 C 4,4 C 2,2 C 97 % 1019,3 hPa 0,0 l/m 0 min 0 min 0 W/m 0,0 km/h (0 Bft) 95,74 %
10.02.2022 08:04 4,9 C 4,4 C 2,8 C 97 % 1019,4 hPa 0,0 l/m 0 min 0 min 0 W/m 3,2 km/h (1 Bft) 97,87 %
10.02.2022 08:06 4,9 C 5,0 C 2,8 C 97 % 1019,4 hPa 0,0 l/m 0 min 0 min 0 W/m 3,2 km/h (1 Bft) 97,87 %
10.02.2022 08:08 4,9 C 5,0 C 2,8 C 97 % 1019,5 hPa 0,0 l/m 0 min 0 min 3 W/m 3,2 km/h (1 Bft) 97,83 %
10.02.2022 08:10 5,0 C 5,0 C 2,8 C 97 % 1019,5 hPa 0,0 l/m 0 min 0 min 6 W/m 0,0 km/h (0 Bft) 95,74 %
10.02.2022 08:12 5,0 C 5,0 C 2,8 C 97 % 1019,5 hPa 0,0 l/m 0 min 0 min 8 W/m 0,0 km/h (0 Bft) 97,87 %
10.02.2022 08:14 5,1 C 5,0 C 2,8 C 97 % 1019,5 hPa 0,0 l/m 0 min 0 min 9 W/m 3,2 km/h (1 Bft) 97,87 %
10.02.2022 08:16 5,1 C 5,0 C 2,8 C 97 % 1019,6 hPa 0,0 l/m 0 min 0 min 9 W/m 3,2 km/h (1 Bft) 97,87 %
10.02.2022 08:18 5,1 C 5,0 C 2,8 C 97 % 1019,6 hPa 0,0 l/m 0 min 0 min 9 W/m 3,2 km/h (1 Bft) 97,87 %
10.02.2022 08:20 5,1 C 5,0 C 2,8 C 97 % 1019,6 hPa 0,0 l/m 0 min 0 min 9 W/m 0,0 km/h (0 Bft) 93,48 %
10.02.2022 08:22 5,1 C 5,0 C 2,8 C 97 % 1019,7 hPa 0,0 l/m 0 min 0 min 9 W/m 3,2 km/h (1 Bft) 97,87 %
10.02.2022 08:24 5,1 C 5,0 C 2,8 C 97 % 1019,6 hPa 0,0 l/m 0 min 0 min 9 W/m 0,0 km/h (0 Bft) 97,87 %
10.02.2022 08:26 5,2 C 5,0 C 2,8 C 97 % 1019,6 hPa 0,0 l/m 0 min 0 min 10 W/m 3,2 km/h (1 Bft) 91,49 %
10.02.2022 08:28 5,2 C 5,0 C 2,8 C 97 % 1019,6 hPa 0,0 l/m 0 min 0 min 11 W/m 0,0 km/h (0 Bft) 70,21 %
10.02.2022 08:30 5,2 C 5,0 C 2,8 C 97 % 1019,6 hPa 0,0 l/m 0 min 0 min 11 W/m 3,2 km/h (1 Bft) 78,72 %
10.02.2022 08:32 5,3 C 5,0 C 2,8 C 97 % 1019,7 hPa 0,0 l/m 0 min 0 min 9 W/m 0,0 km/h (0 Bft) 93,48 %
10.02.2022 08:34 5,3 C 5,0 C 2,8 C 97 % 1019,7 hPa 0,0 l/m 0 min 0 min 7 W/m 0,0 km/h (0 Bft) 95,74 %
10.02.2022 08:36 5,3 C 5,0 C 2,8 C 97 % 1019,7 hPa 0,0 l/m 0 min 0 min 7 W/m 3,2 km/h (1 Bft) 97,87 %
10.02.2022 08:38 5,4 C 5,0 C 2,8 C 97 % 1019,7 hPa 0,0 l/m 0 min 0 min 9 W/m 3,2 km/h (1 Bft) 97,87 %
10.02.2022 08:40 5,4 C 5,0 C 2,8 C 97 % 1019,7 hPa 0,0 l/m 0 min 0 min 10 W/m 3,2 km/h (1 Bft) 97,87 %
10.02.2022 08:42 5,4 C 5,6 C 2,8 C 97 % 1019,6 hPa 0,0 l/m 0 min 0 min 12 W/m 6,4 km/h (2 Bft) 97,83 %
10.02.2022 08:44 5,5 C 5,6 C 2,8 C 97 % 1019,7 hPa 0,0 l/m 0 min 0 min 12 W/m 6,4 km/h (2 Bft) 97,87 %
10.02.2022 08:46 5,5 C 5,6 C 2,8 C 97 % 1019,7 hPa 0,0 l/m 0 min 0 min 14 W/m 6,4 km/h (2 Bft) 95,74 %
10.02.2022 08:48 5,6 C 5,6 C 2,8 C 97 % 1019,7 hPa 0,0 l/m 0 min 0 min 14 W/m 6,4 km/h (2 Bft) 97,87 %
10.02.2022 08:50 5,6 C 5,6 C 2,8 C 97 % 1019,7 hPa 0,0 l/m 0 min 0 min 14 W/m 6,4 km/h (2 Bft) 95,74 %
10.02.2022 08:52 5,6 C 5,6 C 2,8 C 97 % 1019,8 hPa 0,0 l/m 0 min 0 min 14 W/m 3,2 km/h (1 Bft) 97,87 %
10.02.2022 08:54 5,6 C 5,6 C 2,8 C 97 % 1019,8 hPa 0,0 l/m 0 min 0 min 14 W/m 3,2 km/h (1 Bft) 97,83 %
10.02.2022 08:56 5,7 C 5,6 C 2,8 C 97 % 1019,8 hPa 0,0 l/m 0 min 0 min 16 W/m 6,4 km/h (2 Bft) 95,74 %
10.02.2022 08:58 5,7 C 5,6 C 3,3 C 97 % 1019,8 hPa 0,0 l/m 0 min 0 min 17 W/m 12,9 km/h (3 Bft) 95,74 %
10.02.2022 09:00 5,8 C 5,6 C 3,3 C 97 % 1019,8 hPa 0,0 l/m 0 min 0 min 16 W/m 12,9 km/h (3 Bft) 97,87 %
10.02.2022 09:02 5,8 C 5,6 C 3,3 C 96 % 1019,8 hPa 0,0 l/m 0 min 0 min 14 W/m 16,1 km/h (3 Bft) 97,87 %
10.02.2022 09:04 5,8 C 5,6 C 3,3 C 96 % 1019,9 hPa 0,0 l/m 0 min 0 min 16 W/m 9,7 km/h (2 Bft) 97,87 %
10.02.2022 09:06 5,9 C 5,6 C 3,3 C 97 % 1019,9 hPa 0,0 l/m 0 min 0 min 16 W/m 9,7 km/h (2 Bft) 100,00 %
10.02.2022 09:08 5,9 C 5,6 C 3,3 C 96 % 1019,9 hPa 0,0 l/m 0 min 0 min 16 W/m 12,9 km/h (3 Bft) 100,00 %
10.02.2022 09:10 5,9 C 5,6 C 3,3 C 96 % 1019,9 hPa 0,0 l/m 0 min 0 min 16 W/m 12,9 km/h (3 Bft) 100,00 %
10.02.2022 09:12 5,9 C 5,6 C 3,3 C 96 % 1019,9 hPa 0,0 l/m 0 min 0 min 14 W/m 9,7 km/h (2 Bft) 97,87 %
10.02.2022 09:14 6,0 C 5,6 C 3,3 C 96 % 1019,9 hPa 0,0 l/m 0 min 0 min 17 W/m 9,7 km/h (2 Bft) 95,74 %
10.02.2022 09:16 6,0 C 5,6 C 3,3 C 96 % 1019,9 hPa 0,0 l/m 0 min 0 min 18 W/m 6,4 km/h (2 Bft) 97,87 %
10.02.2022 09:18 6,1 C 5,6 C 3,3 C 96 % 1019,9 hPa 0,0 l/m 0 min 0 min 19 W/m 12,9 km/h (3 Bft) 97,83 %
10.02.2022 09:20 6,1 C 5,6 C 3,3 C 96 % 1020,0 hPa 0,0 l/m 0 min 0 min 21 W/m 12,9 km/h (3 Bft) 97,87 %
10.02.2022 09:22 6,1 C 5,6 C 3,3 C 96 % 1020,0 hPa 0,0 l/m 0 min 0 min 21 W/m 6,4 km/h (2 Bft) 100,00 %
10.02.2022 09:24 6,1 C 5,6 C 3,3 C 96 % 1020,0 hPa 0,0 l/m 0 min 0 min 21 W/m 12,9 km/h (3 Bft) 95,74 %
10.02.2022 09:26 6,1 C 5,6 C 3,3 C 96 % 1020,0 hPa 0,0 l/m 0 min 0 min 21 W/m 6,4 km/h (2 Bft) 95,74 %
10.02.2022 09:28 6,1 C 5,6 C 3,3 C 96 % 1020,0 hPa 0,0 l/m 0 min 0 min 24 W/m 9,7 km/h (2 Bft) 97,87 %
10.02.2022 09:30 6,1 C 5,6 C 3,3 C 96 % 1019,9 hPa 0,0 l/m 0 min 0 min 28 W/m 6,4 km/h (2 Bft) 97,83 %
10.02.2022 09:32 6,1 C 5,6 C 3,3 C 95 % 1020,0 hPa 0,0 l/m 0 min 2 min 34 W/m 3,2 km/h (1 Bft) 97,87 %
10.02.2022 09:34 6,1 C 5,6 C 3,3 C 95 % 1019,9 hPa 0,0 l/m 0 min 2 min 41 W/m 6,4 km/h (2 Bft) 95,74 %
10.02.2022 09:36 6,1 C 5,6 C 3,3 C 95 % 1019,9 hPa 0,0 l/m 0 min 2 min 47 W/m 16,1 km/h (3 Bft) 97,87 %
10.02.2022 09:38 6,1 C 6,1 C 3,3 C 95 % 1019,9 hPa 0,0 l/m 0 min 2 min 49 W/m 6,4 km/h (2 Bft) 97,87 %
10.02.2022 09:40 6,1 C 6,1 C 3,3 C 95 % 1019,9 hPa 0,0 l/m 0 min 2 min 38 W/m 3,2 km/h (1 Bft) 97,87 %
10.02.2022 09:42 6,2 C 6,1 C 3,3 C 95 % 1019,9 hPa 0,0 l/m 0 min 2 min 34 W/m 9,7 km/h (2 Bft) 95,65 %
10.02.2022 09:44 6,2 C 6,1 C 3,3 C 95 % 1019,9 hPa 0,0 l/m 0 min 0 min 45 W/m 9,7 km/h (2 Bft) 97,87 %
10.02.2022 09:46 6,2 C 6,1 C 3,3 C 95 % 1019,9 hPa 0,0 l/m 0 min 2 min 67 W/m 12,9 km/h (3 Bft) 95,74 %
10.02.2022 09:48 6,2 C 6,1 C 3,3 C 95 % 1019,9 hPa 0,0 l/m 0 min 0 min 75 W/m 9,7 km/h (2 Bft) 97,87 %
10.02.2022 09:50 6,3 C 6,1 C 3,3 C 95 % 1019,9 hPa 0,0 l/m 0 min 0 min 71 W/m 19,3 km/h (3 Bft) 97,87 %
10.02.2022 09:52 6,3 C 6,1 C 3,3 C 95 % 1019,9 hPa 0,0 l/m 0 min 0 min 55 W/m 16,1 km/h (3 Bft) 97,87 %
10.02.2022 09:54 6,3 C 6,1 C 3,3 C 95 % 1020,0 hPa 0,0 l/m 0 min 0 min 53 W/m 19,3 km/h (3 Bft) 93,48 %
10.02.2022 09:56 6,3 C 6,1 C 3,3 C 95 % 1019,9 hPa 0,0 l/m 0 min 0 min 53 W/m 19,3 km/h (3 Bft) 95,74 %
10.02.2022 09:58 6,4 C 6,1 C 3,3 C 95 % 1020,0 hPa 0,0 l/m 0 min 2 min 54 W/m 6,4 km/h (2 Bft) 95,74 %
10.02.2022 10:00 6,4 C 6,1 C 3,3 C 95 % 1020,0 hPa 0,0 l/m 0 min 0 min 54 W/m 9,7 km/h (2 Bft) 93,62 %
10.02.2022 10:02 6,4 C 6,1 C 3,3 C 95 % 1020,0 hPa 0,0 l/m 0 min 0 min 57 W/m 3,2 km/h (1 Bft) 97,87 %
10.02.2022 10:04 6,4 C 6,1 C 3,3 C 95 % 1019,9 hPa 0,0 l/m 0 min 0 min 65 W/m 6,4 km/h (2 Bft) 97,83 %
10.02.2022 10:06 6,5 C 6,1 C 3,3 C 95 % 1019,9 hPa 0,0 l/m 0 min 0 min 74 W/m 16,1 km/h (3 Bft) 97,87 %
10.02.2022 10:08 6,5 C 6,1 C 3,3 C 95 % 1019,9 hPa 0,0 l/m 0 min 0 min 90 W/m 22,5 km/h (4 Bft) 95,74 %
10.02.2022 10:10 6,5 C 6,1 C 3,3 C 95 % 1019,9 hPa 0,0 l/m 0 min 0 min 97 W/m 12,9 km/h (3 Bft) 93,62 %
10.02.2022 10:12 6,5 C 6,7 C 3,9 C 95 % 1019,9 hPa 0,0 l/m 0 min 0 min 83 W/m 9,7 km/h (2 Bft) 97,87 %
10.02.2022 10:14 6,5 C 6,7 C 3,9 C 95 % 1019,9 hPa 0,0 l/m 0 min 0 min 64 W/m 12,9 km/h (3 Bft) 97,87 %
10.02.2022 10:16 6,6 C 6,7 C 3,9 C 95 % 1020,0 hPa 0,0 l/m 0 min 0 min 54 W/m 6,4 km/h (2 Bft) 97,87 %
10.02.2022 10:18 6,6 C 6,7 C 3,9 C 95 % 1020,1 hPa 0,0 l/m 0 min 0 min 51 W/m 9,7 km/h (2 Bft) 97,96 %
10.02.2022 10:20 6,6 C 6,1 C 3,9 C 95 % 1020,1 hPa 0,0 l/m 0 min 0 min 53 W/m 12,9 km/h (3 Bft) 97,87 %
10.02.2022 10:22 6,6 C 6,7 C 3,9 C 95 % 1020,0 hPa 0,0 l/m 0 min 0 min 66 W/m 12,9 km/h (3 Bft) 97,87 %
10.02.2022 10:24 6,7 C 6,7 C 3,9 C 95 % 1020,1 hPa 0,0 l/m 0 min 0 min 80 W/m 12,9 km/h (3 Bft) 97,87 %
10.02.2022 10:26 6,7 C 6,7 C 3,9 C 95 % 1020,1 hPa 0,0 l/m 0 min 0 min 70 W/m 22,5 km/h (4 Bft) 97,83 %
10.02.2022 10:28 6,7 C 6,7 C 3,9 C 95 % 1020,1 hPa 0,0 l/m 0 min 0 min 55 W/m 12,9 km/h (3 Bft) 100,00 %
10.02.2022 10:30 6,7 C 6,7 C 3,9 C 95 % 1020,1 hPa 0,0 l/m 0 min 0 min 55 W/m 12,9 km/h (3 Bft) 100,00 %
10.02.2022 10:32 6,8 C 6,7 C 3,9 C 95 % 1020,1 hPa 0,0 l/m 0 min 0 min 56 W/m 12,9 km/h (3 Bft) 100,00 %
10.02.2022 10:34 6,8 C 6,7 C 3,9 C 95 % 1020,1 hPa 0,0 l/m 0 min 0 min 67 W/m 16,1 km/h (3 Bft) 100,00 %
10.02.2022 10:36 6,8 C 6,7 C 3,9 C 94 % 1020,1 hPa 0,0 l/m 0 min 0 min 62 W/m 12,9 km/h (3 Bft) 100,00 %
10.02.2022 10:38 6,8 C 6,7 C 3,9 C 95 % 1020,1 hPa 0,0 l/m 0 min 0 min 58 W/m 9,7 km/h (2 Bft) 100,00 %
10.02.2022 10:40 6,9 C 6,7 C 3,9 C 95 % 1020,2 hPa 0,0 l/m 0 min 0 min 64 W/m 6,4 km/h (2 Bft) 100,00 %
10.02.2022 10:42 6,9 C 6,7 C 3,9 C 95 % 1020,2 hPa 0,0 l/m 0 min 0 min 68 W/m 12,9 km/h (3 Bft) 100,00 %
10.02.2022 10:44 6,9 C 6,7 C 3,9 C 95 % 1020,2 hPa 0,0 l/m 0 min 0 min 61 W/m 9,7 km/h (2 Bft) 100,00 %
10.02.2022 10:46 7,0 C 6,7 C 3,9 C 95 % 1020,2 hPa 0,0 l/m 0 min 2 min 60 W/m 19,3 km/h (3 Bft) 97,87 %
10.02.2022 10:48 7,0 C 6,7 C 3,9 C 95 % 1020,3 hPa 0,0 l/m 0 min 2 min 63 W/m 12,9 km/h (3 Bft) 100,00 %
10.02.2022 10:50 7,0 C 6,7 C 3,9 C 95 % 1020,2 hPa 0,0 l/m 0 min 2 min 66 W/m 22,5 km/h (4 Bft) 100,00 %
10.02.2022 10:52 7,0 C 6,7 C 3,9 C 95 % 1020,2 hPa 0,2 l/m 0 min 2 min 64 W/m 12,9 km/h (3 Bft) 97,87 %
10.02.2022 10:54 7,1 C 6,1 C 3,3 C 95 % 1020,2 hPa 0,0 l/m 0 min 2 min 61 W/m 12,9 km/h (3 Bft) 97,87 %
10.02.2022 10:56 7,1 C 6,1 C 3,3 C 95 % 1020,3 hPa 0,0 l/m 0 min 0 min 61 W/m 16,1 km/h (3 Bft) 97,87 %
10.02.2022 10:58 7,0 C 6,1 C 3,3 C 95 % 1020,3 hPa 0,0 l/m 0 min 2 min 73 W/m 25,7 km/h (4 Bft) 100,00 %
10.02.2022 11:00 7,0 C 6,1 C 3,3 C 95 % 1020,3 hPa 0,0 l/m 0 min 2 min 76 W/m 12,9 km/h (3 Bft) 100,00 %
10.02.2022 11:02 7,0 C 6,1 C 3,9 C 95 % 1020,3 hPa 0,0 l/m 0 min 2 min 62 W/m 12,9 km/h (3 Bft) 100,00 %
10.02.2022 11:07 7,0 C 6,1 C 3,9 C 95 % 1020,3 hPa 0,0 l/m 0 min 0 min 56 W/m 9,7 km/h (2 Bft) 98,36 %
10.02.2022 11:08 7,0 C 6,1 C 3,9 C 95 % 1020,3 hPa 0,0 l/m 0 min 0 min 52 W/m 12,9 km/h (3 Bft) 100,00 %
10.02.2022 11:10 7,0 C 6,1 C 3,9 C 95 % 1020,4 hPa 0,0 l/m 0 min 2 min 48 W/m 16,1 km/h (3 Bft) 95,74 %
10.02.2022 11:12 7,0 C 6,1 C 3,3 C 95 % 1020,4 hPa 0,0 l/m 0 min 2 min 46 W/m 12,9 km/h (3 Bft) 95,74 %
10.02.2022 11:14 7,0 C 6,1 C 3,9 C 95 % 1020,4 hPa 0,0 l/m 0 min 0 min 37 W/m 16,1 km/h (3 Bft) 95,65 %
10.02.2022 11:16 7,0 C 6,1 C 3,3 C 95 % 1020,5 hPa 0,0 l/m 0 min 0 min 34 W/m 16,1 km/h (3 Bft) 97,87 %
10.02.2022 11:18 6,9 C 6,1 C 3,3 C 95 % 1020,6 hPa 0,0 l/m 0 min 0 min 35 W/m 12,9 km/h (3 Bft) 97,87 %
10.02.2022 11:20 6,9 C 6,1 C 3,3 C 95 % 1020,6 hPa 0,0 l/m 0 min 0 min 35 W/m 9,7 km/h (2 Bft) 95,74 %
10.02.2022 11:22 6,9 C 6,1 C 3,3 C 96 % 1020,6 hPa 0,0 l/m 0 min 0 min 42 W/m 16,1 km/h (3 Bft) 97,87 %
10.02.2022 11:24 6,9 C 6,1 C 3,3 C 96 % 1020,6 hPa 0,0 l/m 0 min 0 min 48 W/m 12,9 km/h (3 Bft) 97,87 %
10.02.2022 11:26 6,9 C 6,1 C 3,3 C 96 % 1020,6 hPa 0,0 l/m 0 min 0 min 44 W/m 12,9 km/h (3 Bft) 97,83 %
10.02.2022 11:28 6,9 C 6,1 C 3,3 C 96 % 1020,5 hPa 0,0 l/m 0 min 0 min 44 W/m 12,9 km/h (3 Bft) 97,92 %
10.02.2022 11:30 6,9 C 6,1 C 3,9 C 96 % 1020,5 hPa 0,0 l/m 0 min 0 min 44 W/m 12,9 km/h (3 Bft) 97,87 %
10.02.2022 11:32 6,9 C 6,1 C 3,3 C 96 % 1020,5 hPa 0,0 l/m 0 min 0 min 43 W/m 12,9 km/h (3 Bft) 95,74 %
10.02.2022 11:34 6,9 C 6,1 C 3,9 C 96 % 1020,6 hPa 0,0 l/m 0 min 0 min 40 W/m 16,1 km/h (3 Bft) 97,87 %
10.02.2022 11:36 6,9 C 6,1 C 3,9 C 96 % 1020,6 hPa 0,0 l/m 0 min 0 min 42 W/m 12,9 km/h (3 Bft) 97,83 %
10.02.2022 11:38 6,9 C 6,1 C 3,9 C 96 % 1020,6 hPa 0,0 l/m 0 min 0 min 46 W/m 12,9 km/h (3 Bft) 95,74 %
10.02.2022 11:40 6,9 C 6,1 C 3,9 C 96 % 1020,6 hPa 0,0 l/m 0 min 0 min 51 W/m 12,9 km/h (3 Bft) 95,74 %
10.02.2022 11:42 6,9 C 6,1 C 3,9 C 96 % 1020,6 hPa 0,0 l/m 0 min 0 min 50 W/m 12,9 km/h (3 Bft) 95,74 %
10.02.2022 11:44 6,9 C 6,1 C 3,9 C 96 % 1020,6 hPa 0,0 l/m 0 min 0 min 44 W/m 12,9 km/h (3 Bft) 100,00 %
10.02.2022 11:46 6,9 C 6,1 C 3,9 C 96 % 1020,6 hPa 0,0 l/m 0 min 0 min 35 W/m 12,9 km/h (3 Bft) 100,00 %
10.02.2022 11:48 6,9 C 6,1 C 3,9 C 96 % 1020,6 hPa 0,0 l/m 0 min 0 min 35 W/m 12,9 km/h (3 Bft) 93,62 %
10.02.2022 11:50 6,9 C 6,1 C 3,9 C 97 % 1020,6 hPa 0,0 l/m 0 min 0 min 34 W/m 12,9 km/h (3 Bft) 97,87 %
10.02.2022 11:52 6,9 C 6,1 C 3,9 C 97 % 1020,7 hPa 0,0 l/m 0 min 2 min 36 W/m 12,9 km/h (3 Bft) 96,55 %
10.02.2022 11:54 6,9 C 6,1 C 3,9 C 96 % 1020,7 hPa 0,0 l/m 0 min 2 min 36 W/m 16,1 km/h (3 Bft) 97,87 %
10.02.2022 11:56 6,9 C 6,1 C 3,9 C 97 % 1020,6 hPa 0,0 l/m 0 min 2 min 37 W/m 12,9 km/h (3 Bft) 95,74 %
10.02.2022 11:58 6,9 C 6,1 C 3,9 C 97 % 1020,6 hPa 0,0 l/m 0 min 2 min 38 W/m 9,7 km/h (2 Bft) 97,87 %
10.02.2022 12:00 6,9 C 6,1 C 3,9 C 97 % 1020,6 hPa 0,0 l/m 0 min 2 min 42 W/m 9,7 km/h (2 Bft) 97,87 %
10.02.2022 12:02 6,9 C 6,1 C 3,9 C 97 % 1020,7 hPa 0,0 l/m 0 min 0 min 45 W/m 12,9 km/h (3 Bft) 97,83 %
10.02.2022 12:04 6,9 C 6,1 C 3,9 C 97 % 1020,6 hPa 0,0 l/m 0 min 0 min 48 W/m 16,1 km/h (3 Bft) 97,87 %
10.02.2022 12:08 6,9 C 6,1 C 3,9 C 97 % 1020,7 hPa 0,0 l/m 0 min 0 min 44 W/m 9,7 km/h (2 Bft) 95,74 %
10.02.2022 12:10 6,9 C 6,1 C 3,9 C 97 % 1020,7 hPa 0,2 l/m 0 min 0 min 45 W/m 6,4 km/h (2 Bft) 95,74 %
10.02.2022 12:12 6,9 C 6,1 C 3,9 C 97 % 1020,7 hPa 0,0 l/m 0 min 0 min 44 W/m 12,9 km/h (3 Bft) 95,65 %
10.02.2022 12:14 6,9 C 6,1 C 3,9 C 97 % 1020,8 hPa 0,0 l/m 0 min 2 min 43 W/m 12,9 km/h (3 Bft) 95,74 %
10.02.2022 12:16 6,9 C 6,1 C 3,9 C 97 % 1020,8 hPa 0,0 l/m 0 min 2 min 47 W/m 9,7 km/h (2 Bft) 93,62 %
10.02.2022 12:18 6,9 C 6,1 C 3,9 C 97 % 1020,8 hPa 0,0 l/m 0 min 2 min 38 W/m 9,7 km/h (2 Bft) 95,74 %
10.02.2022 12:20 6,9 C 6,1 C 3,9 C 97 % 1020,7 hPa 0,0 l/m 0 min 2 min 37 W/m 6,4 km/h (2 Bft) 95,74 %
10.02.2022 12:22 6,9 C 6,1 C 3,9 C 97 % 1020,8 hPa 0,0 l/m 0 min 0 min 35 W/m 6,4 km/h (2 Bft) 93,62 %
10.02.2022 12:24 6,9 C 6,1 C 3,9 C 97 % 1020,8 hPa 0,0 l/m 0 min 2 min 37 W/m 12,9 km/h (3 Bft) 97,83 %
10.02.2022 12:26 6,9 C 6,1 C 3,9 C 97 % 1020,7 hPa 0,2 l/m 0 min 2 min 40 W/m 9,7 km/h (2 Bft) 97,87 %
10.02.2022 12:28 6,9 C 6,1 C 3,9 C 97 % 1020,7 hPa 0,0 l/m 0 min 0 min 44 W/m 6,4 km/h (2 Bft) 97,87 %
10.02.2022 12:30 6,9 C 6,1 C 3,9 C 97 % 1020,7 hPa 0,0 l/m 0 min 0 min 43 W/m 6,4 km/h (2 Bft) 97,87 %
10.02.2022 12:32 6,9 C 6,1 C 3,9 C 97 % 1020,7 hPa 0,0 l/m 0 min 0 min 43 W/m 12,9 km/h (3 Bft) 97,87 %
10.02.2022 12:34 6,9 C 6,1 C 3,9 C 97 % 1020,7 hPa 0,0 l/m 0 min 0 min 44 W/m 9,7 km/h (2 Bft) 95,74 %
10.02.2022 12:36 6,9 C 6,1 C 3,9 C 97 % 1020,7 hPa 0,0 l/m 0 min 0 min 41 W/m 12,9 km/h (3 Bft) 95,65 %
10.02.2022 12:38 6,9 C 6,1 C 3,9 C 97 % 1020,7 hPa 0,0 l/m 0 min 0 min 33 W/m 6,4 km/h (2 Bft) 97,87 %
10.02.2022 12:40 6,9 C 6,1 C 3,9 C 97 % 1020,7 hPa 0,0 l/m 0 min 0 min 29 W/m 6,4 km/h (2 Bft) 97,87 %
10.02.2022 12:42 6,9 C 6,1 C 3,9 C 97 % 1020,7 hPa 0,0 l/m 0 min 0 min 29 W/m 6,4 km/h (2 Bft) 95,74 %
10.02.2022 12:44 6,9 C 6,1 C 3,9 C 97 % 1020,7 hPa 0,0 l/m 0 min 2 min 33 W/m 12,9 km/h (3 Bft) 97,87 %
10.02.2022 12:46 6,9 C 6,1 C 3,9 C 97 % 1020,7 hPa 0,0 l/m 0 min 2 min 35 W/m 12,9 km/h (3 Bft) 97,83 %
10.02.2022 12:48 6,9 C 6,1 C 3,9 C 98 % 1020,7 hPa 0,0 l/m 0 min 2 min 32 W/m 12,9 km/h (3 Bft) 97,87 %
10.02.2022 12:50 6,9 C 6,1 C 3,9 C 98 % 1020,8 hPa 0,2 l/m 0 min 2 min 37 W/m 6,4 km/h (2 Bft) 97,87 %
10.02.2022 12:52 6,9 C 6,1 C 3,9 C 98 % 1020,7 hPa 0,0 l/m 0 min 2 min 40 W/m 6,4 km/h (2 Bft) 95,74 %
10.02.2022 12:54 6,9 C 6,1 C 3,9 C 98 % 1020,7 hPa 0,0 l/m 0 min 0 min 39 W/m 12,9 km/h (3 Bft) 100,00 %
10.02.2022 12:56 6,9 C 6,1 C 3,9 C 98 % 1020,7 hPa 0,0 l/m 0 min 0 min 41 W/m 16,1 km/h (3 Bft) 100,00 %
10.02.2022 12:58 6,9 C 6,1 C 3,9 C 98 % 1020,7 hPa 0,2 l/m 0 min 2 min 37 W/m 9,7 km/h (2 Bft) 100,00 %
10.02.2022 13:00 6,9 C 6,1 C 3,9 C 98 % 1020,7 hPa 0,0 l/m 0 min 2 min 37 W/m 9,7 km/h (2 Bft) 95,74 %
10.02.2022 13:02 6,9 C 6,1 C 3,9 C 98 % 1020,7 hPa 0,0 l/m 0 min 2 min 40 W/m 12,9 km/h (3 Bft) 100,00 %
10.02.2022 13:04 6,9 C 6,1 C 3,9 C 98 % 1020,7 hPa 0,0 l/m 0 min 0 min 36 W/m 6,4 km/h (2 Bft) 100,00 %
10.02.2022 13:06 6,9 C 6,1 C 3,9 C 98 % 1020,7 hPa 0,0 l/m 0 min 0 min 28 W/m 6,4 km/h (2 Bft) 100,00 %
10.02.2022 13:08 6,9 C 6,1 C 3,9 C 98 % 1020,7 hPa 0,0 l/m 0 min 0 min 26 W/m 6,4 km/h (2 Bft) 97,87 %
10.02.2022 13:10 6,9 C 6,1 C 3,9 C 98 % 1020,6 hPa 0,0 l/m 0 min 0 min 28 W/m 6,4 km/h (2 Bft) 100,00 %
10.02.2022 13:12 6,9 C 6,1 C 3,9 C 98 % 1020,7 hPa 0,0 l/m 0 min 0 min 28 W/m 3,2 km/h (1 Bft) 100,00 %
10.02.2022 13:14 6,9 C 6,1 C 3,9 C 98 % 1020,7 hPa 0,0 l/m 0 min 0 min 33 W/m 12,9 km/h (3 Bft) 100,00 %
10.02.2022 13:16 6,9 C 6,1 C 3,9 C 98 % 1020,7 hPa 0,0 l/m 0 min 0 min 21 W/m 6,4 km/h (2 Bft) 100,00 %
10.02.2022 13:18 6,9 C 6,1 C 3,9 C 98 % 1020,7 hPa 0,0 l/m 0 min 0 min 26 W/m 6,4 km/h (2 Bft) 100,00 %
10.02.2022 13:20 6,9 C 6,1 C 3,9 C 98 % 1020,8 hPa 0,0 l/m 0 min 0 min 28 W/m 9,7 km/h (2 Bft) 100,00 %
10.02.2022 13:22 6,9 C 6,1 C 3,9 C 98 % 1020,7 hPa 0,0 l/m 0 min 0 min 22 W/m 12,9 km/h (3 Bft) 100,00 %
10.02.2022 13:24 6,9 C 6,1 C 3,9 C 98 % 1020,8 hPa 0,0 l/m 0 min 2 min 26 W/m 9,7 km/h (2 Bft) 100,00 %
10.02.2022 13:26 6,9 C 6,1 C 3,9 C 98 % 1020,8 hPa 0,0 l/m 0 min 2 min 41 W/m 12,9 km/h (3 Bft) 95,65 %
10.02.2022 13:28 6,9 C 6,1 C 3,9 C 98 % 1020,8 hPa 0,2 l/m 0 min 0 min 56 W/m 16,1 km/h (3 Bft) 97,87 %
10.02.2022 13:30 6,9 C 6,1 C 3,9 C 98 % 1020,9 hPa 0,0 l/m 0 min 2 min 77 W/m 9,7 km/h (2 Bft) 100,00 %
10.02.2022 13:32 6,9 C 6,7 C 3,9 C 98 % 1020,9 hPa 0,2 l/m 0 min 2 min 100 W/m 9,7 km/h (2 Bft) 97,87 %
10.02.2022 13:34 6,9 C 6,7 C 4,4 C 98 % 1020,8 hPa 0,0 l/m 0 min 2 min 122 W/m 9,7 km/h (2 Bft) 100,00 %
10.02.2022 13:36 6,9 C 6,7 C 4,4 C 98 % 1020,8 hPa 0,0 l/m 0 min 2 min 128 W/m 12,9 km/h (3 Bft) 100,00 %
10.02.2022 13:38 6,9 C 6,7 C 4,4 C 98 % 1020,9 hPa 0,0 l/m 0 min 2 min 116 W/m 6,4 km/h (2 Bft) 100,00 %
10.02.2022 13:40 7,0 C 6,7 C 4,4 C 98 % 1020,9 hPa 0,0 l/m 0 min 2 min 106 W/m 6,4 km/h (2 Bft) 100,00 %
10.02.2022 13:42 7,0 C 6,7 C 4,4 C 98 % 1020,9 hPa 0,0 l/m 0 min 2 min 97 W/m 6,4 km/h (2 Bft) 65,96 %
10.02.2022 13:44 7,0 C 6,7 C 4,4 C 98 % 1020,8 hPa 0,0 l/m 0 min 2 min 86 W/m 6,4 km/h (2 Bft) 86,96 %
10.02.2022 13:46 7,1 C 6,7 C 4,4 C 98 % 1020,9 hPa 0,0 l/m 0 min 0 min 80 W/m 3,2 km/h (1 Bft) 100,00 %
10.02.2022 13:48 7,1 C 6,7 C 4,4 C 98 % 1020,9 hPa 0,0 l/m 0 min 0 min 76 W/m 9,7 km/h (2 Bft) 97,87 %
10.02.2022 13:50 7,1 C 6,7 C 4,4 C 98 % 1020,9 hPa 0,0 l/m 0 min 0 min 79 W/m 6,4 km/h (2 Bft) 95,74 %
10.02.2022 13:52 7,1 C 6,7 C 4,4 C 98 % 1020,9 hPa 0,0 l/m 0 min 0 min 82 W/m 6,4 km/h (2 Bft) 93,48 %
10.02.2022 13:54 7,0 C 6,7 C 4,4 C 98 % 1020,8 hPa 0,0 l/m 0 min 0 min 79 W/m 6,4 km/h (2 Bft) 95,74 %
10.02.2022 13:56 7,0 C 6,7 C 4,4 C 98 % 1020,8 hPa 0,0 l/m 0 min 0 min 73 W/m 6,4 km/h (2 Bft) 95,74 %
10.02.2022 13:58 7,0 C 6,7 C 4,4 C 98 % 1020,8 hPa 0,0 l/m 0 min 0 min 70 W/m 3,2 km/h (1 Bft) 95,74 %
10.02.2022 14:00 7,0 C 6,7 C 4,4 C 98 % 1020,8 hPa 0,0 l/m 0 min 0 min 76 W/m 3,2 km/h (1 Bft) 95,74 %
10.02.2022 14:02 7,0 C 6,7 C 4,4 C 98 % 1020,7 hPa 0,0 l/m 0 min 2 min 88 W/m 3,2 km/h (1 Bft) 93,48 %
10.02.2022 14:04 7,1 C 6,7 C 4,4 C 98 % 1020,7 hPa 0,0 l/m 0 min 0 min 92 W/m 3,2 km/h (1 Bft) 95,74 %
10.02.2022 14:06 7,1 C 6,7 C 4,4 C 98 % 1020,7 hPa 0,0 l/m 0 min 0 min 88 W/m 6,4 km/h (2 Bft) 95,74 %
10.02.2022 14:08 7,1 C 6,7 C 4,4 C 98 % 1020,6 hPa 0,0 l/m 0 min 0 min 80 W/m 3,2 km/h (1 Bft) 95,74 %
10.02.2022 14:10 7,1 C 6,7 C 4,4 C 98 % 1020,6 hPa 0,0 l/m 0 min 0 min 70 W/m 3,2 km/h (1 Bft) 95,74 %
10.02.2022 14:12 7,1 C 6,7 C 4,4 C 98 % 1020,6 hPa 0,0 l/m 0 min 0 min 67 W/m 3,2 km/h (1 Bft) 95,74 %
10.02.2022 14:14 7,1 C 6,7 C 4,4 C 98 % 1020,5 hPa 0,0 l/m 0 min 0 min 69 W/m 0,0 km/h (0 Bft) 95,65 %
10.02.2022 14:16 7,1 C 6,7 C 4,4 C 98 % 1020,7 hPa 0,0 l/m 0 min 0 min 67 W/m 3,2 km/h (1 Bft) 95,74 %
10.02.2022 14:18 7,1 C 6,7 C 4,4 C 98 % 1020,7 hPa 0,0 l/m 0 min 0 min 71 W/m 3,2 km/h (1 Bft) 95,74 %
10.02.2022 14:20 7,1 C 6,7 C 4,4 C 98 % 1020,7 hPa 0,0 l/m 0 min 0 min 72 W/m 3,2 km/h (1 Bft) 95,74 %
10.02.2022 14:22 7,1 C 6,7 C 4,4 C 98 % 1020,7 hPa 0,0 l/m 0 min 0 min 66 W/m 6,4 km/h (2 Bft) 95,74 %
10.02.2022 14:24 7,1 C 6,7 C 4,4 C 98 % 1020,7 hPa 0,0 l/m 0 min 0 min 66 W/m 3,2 km/h (1 Bft) 97,87 %
10.02.2022 14:26 7,1 C 6,7 C 4,4 C 98 % 1020,8 hPa 0,0 l/m 0 min 0 min 65 W/m 3,2 km/h (1 Bft) 100,00 %
10.02.2022 14:28 7,2 C 6,7 C 4,4 C 98 % 1020,8 hPa 0,0 l/m 0 min 0 min 62 W/m 3,2 km/h (1 Bft) 97,87 %
10.02.2022 14:30 7,1 C 6,7 C 4,4 C 98 % 1020,8 hPa 0,0 l/m 0 min 0 min 59 W/m 3,2 km/h (1 Bft) 97,87 %
10.02.2022 14:32 7,1 C 6,7 C 4,4 C 98 % 1020,8 hPa 0,0 l/m 0 min 0 min 54 W/m 3,2 km/h (1 Bft) 95,74 %
10.02.2022 14:34 7,1 C 6,7 C 4,4 C 98 % 1020,7 hPa 0,0 l/m 0 min 0 min 53 W/m 3,2 km/h (1 Bft) 97,87 %
10.02.2022 14:36 7,1 C 6,7 C 4,4 C 98 % 1020,8 hPa 0,0 l/m 0 min 0 min 57 W/m 3,2 km/h (1 Bft) 97,87 %
10.02.2022 14:38 7,1 C 6,7 C 4,4 C 98 % 1020,7 hPa 0,0 l/m 0 min 0 min 65 W/m 3,2 km/h (1 Bft) 100,00 %
10.02.2022 14:40 7,1 C 6,7 C 4,4 C 98 % 1020,7 hPa 0,0 l/m 0 min 0 min 77 W/m 3,2 km/h (1 Bft) 100,00 %
10.02.2022 14:42 7,1 C 6,7 C 4,4 C 98 % 1020,7 hPa 0,0 l/m 0 min 0 min 95 W/m 6,4 km/h (2 Bft) 100,00 %
10.02.2022 14:44 7,1 C 6,7 C 4,4 C 98 % 1020,7 hPa 0,0 l/m 0 min 0 min 111 W/m 3,2 km/h (1 Bft) 100,00 %
10.02.2022 14:46 7,1 C 7,2 C 4,4 C 98 % 1020,7 hPa 0,0 l/m 0 min 0 min 103 W/m 3,2 km/h (1 Bft) 100,00 %
10.02.2022 14:48 7,1 C 7,2 C 4,4 C 98 % 1020,6 hPa 0,0 l/m 0 min 0 min 102 W/m 3,2 km/h (1 Bft) 100,00 %
10.02.2022 14:50 7,1 C 7,2 C 4,4 C 98 % 1020,6 hPa 0,0 l/m 0 min 0 min 113 W/m 0,0 km/h (0 Bft) 100,00 %
10.02.2022 14:52 7,1 C 7,2 C 4,4 C 98 % 1020,7 hPa 0,0 l/m 0 min 0 min 122 W/m 3,2 km/h (1 Bft) 97,87 %
10.02.2022 14:54 7,2 C 7,2 C 4,4 C 98 % 1020,7 hPa 0,0 l/m 0 min 0 min 140 W/m 3,2 km/h (1 Bft) 100,00 %
10.02.2022 14:56 7,2 C 7,8 C 5,0 C 98 % 1020,6 hPa 0,0 l/m 0 min 0 min 158 W/m 6,4 km/h (2 Bft) 97,87 %
10.02.2022 14:58 7,2 C 7,8 C 5,0 C 98 % 1020,6 hPa 0,0 l/m 2 min 0 min 167 W/m 9,7 km/h (2 Bft) 97,87 %
10.02.2022 15:00 7,2 C 8,3 C 5,0 C 98 % 1020,6 hPa 0,0 l/m 2 min 0 min 187 W/m 6,4 km/h (2 Bft) 97,87 %
10.02.2022 15:02 7,3 C 8,3 C 5,0 C 98 % 1020,7 hPa 0,0 l/m 2 min 0 min 212 W/m 3,2 km/h (1 Bft) 97,83 %
10.02.2022 15:04 7,3 C 8,3 C 5,0 C 98 % 1020,6 hPa 0,0 l/m 2 min 0 min 212 W/m 3,2 km/h (1 Bft) 97,87 %
10.02.2022 15:06 7,3 C 8,9 C 5,0 C 99 % 1020,7 hPa 0,0 l/m 2 min 0 min 183 W/m 3,2 km/h (1 Bft) 97,87 %
10.02.2022 15:08 7,4 C 8,9 C 5,0 C 99 % 1020,6 hPa 0,0 l/m 2 min 0 min 179 W/m 6,4 km/h (2 Bft) 56,52 %
10.02.2022 15:10 7,4 C 8,9 C 5,0 C 99 % 1020,6 hPa 0,0 l/m 2 min 0 min 201 W/m 3,2 km/h (1 Bft) 97,87 %
10.02.2022 15:12 7,4 C 9,4 C 5,0 C 98 % 1020,5 hPa 0,0 l/m 2 min 0 min 213 W/m 3,2 km/h (1 Bft) 97,87 %
10.02.2022 15:14 7,5 C 9,4 C 5,0 C 98 % 1020,5 hPa 0,0 l/m 2 min 0 min 192 W/m 3,2 km/h (1 Bft) 95,65 %
10.02.2022 15:16 7,6 C 10,6 C 5,0 C 98 % 1020,6 hPa 0,0 l/m 2 min 0 min 246 W/m 6,4 km/h (2 Bft) 97,87 %
10.02.2022 15:18 7,7 C 10,6 C 5,0 C 98 % 1020,6 hPa 0,0 l/m 2 min 0 min 323 W/m 3,2 km/h (1 Bft) 97,87 %
10.02.2022 15:20 7,7 C 10,6 C 5,0 C 99 % 1020,6 hPa 0,0 l/m 2 min 0 min 205 W/m 3,2 km/h (1 Bft) 95,74 %
10.02.2022 15:22 7,7 C 10,0 C 5,0 C 98 % 1020,7 hPa 0,0 l/m 2 min 0 min 187 W/m 12,9 km/h (3 Bft) 97,87 %
10.02.2022 15:24 7,8 C 9,4 C 5,0 C 98 % 1020,6 hPa 0,0 l/m 2 min 0 min 192 W/m 6,4 km/h (2 Bft) 97,83 %
10.02.2022 15:26 7,8 C 9,4 C 5,0 C 98 % 1020,7 hPa 0,0 l/m 2 min 0 min 192 W/m 3,2 km/h (1 Bft) 97,87 %
10.02.2022 15:28 7,9 C 9,4 C 5,0 C 98 % 1020,7 hPa 0,0 l/m 2 min 0 min 171 W/m 3,2 km/h (1 Bft) 97,87 %
10.02.2022 15:30 8,0 C 9,4 C 5,0 C 98 % 1020,7 hPa 0,0 l/m 2 min 0 min 155 W/m 6,4 km/h (2 Bft) 94,00 %
10.02.2022 15:32 8,1 C 9,4 C 5,0 C 98 % 1020,7 hPa 0,0 l/m 2 min 0 min 171 W/m 6,4 km/h (2 Bft) 97,87 %
10.02.2022 15:34 8,1 C 10,0 C 5,0 C 98 % 1020,7 hPa 0,0 l/m 2 min 0 min 221 W/m 6,4 km/h (2 Bft) 97,87 %
10.02.2022 15:36 8,1 C 9,4 C 5,0 C 98 % 1020,8 hPa 0,0 l/m 2 min 0 min 189 W/m 12,9 km/h (3 Bft) 97,83 %
10.02.2022 15:38 8,1 C 9,4 C 5,0 C 98 % 1020,8 hPa 0,0 l/m 2 min 0 min 185 W/m 12,9 km/h (3 Bft) 97,87 %
10.02.2022 15:40 8,1 C 9,4 C 5,0 C 98 % 1020,8 hPa 0,0 l/m 2 min 0 min 240 W/m 6,4 km/h (2 Bft) 97,87 %
10.02.2022 15:42 8,2 C 9,4 C 5,0 C 97 % 1020,9 hPa 0,0 l/m 2 min 0 min 250 W/m 12,9 km/h (3 Bft) 97,87 %
10.02.2022 15:44 8,2 C 9,4 C 5,6 C 97 % 1020,9 hPa 0,0 l/m 2 min 0 min 224 W/m 3,2 km/h (1 Bft) 97,87 %
10.02.2022 15:46 8,3 C 9,4 C 5,0 C 97 % 1020,9 hPa 0,0 l/m 2 min 0 min 178 W/m 6,4 km/h (2 Bft) 100,00 %
10.02.2022 15:48 8,3 C 8,9 C 5,0 C 97 % 1020,9 hPa 0,0 l/m 0 min 0 min 114 W/m 6,4 km/h (2 Bft) 100,00 %
10.02.2022 15:50 8,3 C 8,9 C 5,0 C 97 % 1020,9 hPa 0,0 l/m 0 min 0 min 103 W/m 6,4 km/h (2 Bft) 100,00 %
10.02.2022 15:52 8,3 C 8,9 C 5,0 C 96 % 1020,9 hPa 0,0 l/m 0 min 0 min 104 W/m 6,4 km/h (2 Bft) 97,87 %
10.02.2022 15:54 8,3 C 8,3 C 5,0 C 96 % 1020,9 hPa 0,0 l/m 0 min 0 min 88 W/m 9,7 km/h (2 Bft) 97,87 %
10.02.2022 15:56 8,3 C 8,3 C 5,0 C 96 % 1020,9 hPa 0,0 l/m 0 min 0 min 80 W/m 9,7 km/h (2 Bft) 97,87 %
10.02.2022 15:58 8,3 C 8,3 C 5,0 C 96 % 1020,9 hPa 0,0 l/m 0 min 0 min 78 W/m 9,7 km/h (2 Bft) 97,87 %
10.02.2022 16:00 8,3 C 8,3 C 5,0 C 95 % 1020,9 hPa 0,0 l/m 0 min 0 min 76 W/m 3,2 km/h (1 Bft) 95,65 %
10.02.2022 16:02 8,2 C 7,8 C 5,0 C 95 % 1020,9 hPa 0,0 l/m 0 min 0 min 72 W/m 3,2 km/h (1 Bft) 97,87 %
10.02.2022 16:04 8,1 C 7,8 C 5,0 C 94 % 1020,9 hPa 0,0 l/m 0 min 0 min 68 W/m 3,2 km/h (1 Bft) 97,87 %
10.02.2022 16:06 8,1 C 7,8 C 5,0 C 94 % 1020,9 hPa 0,0 l/m 0 min 0 min 61 W/m 3,2 km/h (1 Bft) 97,87 %
10.02.2022 16:08 8,1 C 7,8 C 4,4 C 94 % 1020,9 hPa 0,0 l/m 0 min 0 min 50 W/m 6,4 km/h (2 Bft) 97,87 %
10.02.2022 16:10 8,1 C 7,8 C 4,4 C 94 % 1021,0 hPa 0,0 l/m 0 min 0 min 45 W/m 3,2 km/h (1 Bft) 95,65 %
10.02.2022 16:12 8,1 C 7,8 C 4,4 C 94 % 1020,9 hPa 0,0 l/m 0 min 0 min 43 W/m 3,2 km/h (1 Bft) 97,87 %
10.02.2022 16:14 8,1 C 7,8 C 5,0 C 94 % 1020,9 hPa 0,0 l/m 0 min 0 min 42 W/m 3,2 km/h (1 Bft) 97,87 %
10.02.2022 16:16 8,1 C 7,8 C 4,4 C 94 % 1021,0 hPa 0,0 l/m 0 min 0 min 44 W/m 3,2 km/h (1 Bft) 97,87 %
10.02.2022 16:18 8,1 C 7,8 C 4,4 C 94 % 1021,0 hPa 0,0 l/m 0 min 0 min 47 W/m 3,2 km/h (1 Bft) 97,87 %
10.02.2022 16:20 8,2 C 7,8 C 4,4 C 94 % 1021,0 hPa 0,0 l/m 0 min 0 min 47 W/m 3,2 km/h (1 Bft) 97,87 %
10.02.2022 16:22 8,1 C 7,8 C 4,4 C 93 % 1021,0 hPa 0,0 l/m 0 min 0 min 47 W/m 6,4 km/h (2 Bft) 97,83 %
10.02.2022 16:24 8,1 C 7,8 C 4,4 C 93 % 1021,0 hPa 0,0 l/m 0 min 0 min 46 W/m 6,4 km/h (2 Bft) 97,87 %
10.02.2022 16:26 8,1 C 7,8 C 4,4 C 93 % 1021,0 hPa 0,0 l/m 0 min 0 min 42 W/m 3,2 km/h (1 Bft) 97,87 %
10.02.2022 16:28 8,1 C 7,8 C 4,4 C 93 % 1021,0 hPa 0,2 l/m 0 min 0 min 38 W/m 3,2 km/h (1 Bft) 97,87 %
10.02.2022 16:30 8,1 C 7,2 C 4,4 C 93 % 1021,0 hPa 0,0 l/m 0 min 0 min 34 W/m 6,4 km/h (2 Bft) 100,00 %
10.02.2022 16:32 8,1 C 7,8 C 4,4 C 93 % 1021,0 hPa 0,0 l/m 0 min 0 min 31 W/m 3,2 km/h (1 Bft) 100,00 %
10.02.2022 16:34 8,1 C 7,2 C 4,4 C 92 % 1020,9 hPa 0,0 l/m 0 min 0 min 29 W/m 3,2 km/h (1 Bft) 100,00 %
10.02.2022 16:36 8,1 C 7,2 C 4,4 C 92 % 1020,9 hPa 0,0 l/m 0 min 0 min 26 W/m 3,2 km/h (1 Bft) 100,00 %
10.02.2022 16:38 8,1 C 7,2 C 4,4 C 92 % 1020,9 hPa 0,0 l/m 0 min 0 min 26 W/m 3,2 km/h (1 Bft) 97,87 %
10.02.2022 16:40 8,1 C 7,2 C 4,4 C 92 % 1021,0 hPa 0,0 l/m 0 min 0 min 26 W/m 3,2 km/h (1 Bft) 100,00 %
10.02.2022 16:42 8,0 C 7,2 C 4,4 C 92 % 1021,0 hPa 0,0 l/m 0 min 0 min 23 W/m 3,2 km/h (1 Bft) 97,87 %
10.02.2022 16:44 8,0 C 7,2 C 4,4 C 92 % 1021,0 hPa 0,0 l/m 0 min 0 min 21 W/m 3,2 km/h (1 Bft) 97,87 %
10.02.2022 16:46 8,1 C 7,2 C 4,4 C 92 % 1021,0 hPa 0,0 l/m 0 min 0 min 21 W/m 3,2 km/h (1 Bft) 95,65 %
10.02.2022 16:48 8,1 C 7,2 C 4,4 C 92 % 1021,0 hPa 0,0 l/m 0 min 0 min 20 W/m 3,2 km/h (1 Bft) 97,87 %
10.02.2022 16:50 8,0 C 7,2 C 4,4 C 92 % 1021,0 hPa 0,0 l/m 0 min 0 min 18 W/m 3,2 km/h (1 Bft) 95,74 %
10.02.2022 16:52 8,0 C 7,2 C 4,4 C 92 % 1021,0 hPa 0,0 l/m 0 min 0 min 16 W/m 3,2 km/h (1 Bft) 93,62 %
10.02.2022 16:54 8,0 C 7,2 C 4,4 C 92 % 1021,1 hPa 0,0 l/m 0 min 0 min 16 W/m 3,2 km/h (1 Bft) 97,87 %
10.02.2022 16:56 8,0 C 7,2 C 4,4 C 92 % 1021,0 hPa 0,0 l/m 0 min 0 min 16 W/m 3,2 km/h (1 Bft) 97,87 %
10.02.2022 16:58 8,0 C 7,2 C 4,4 C 92 % 1021,1 hPa 0,0 l/m 0 min 0 min 16 W/m 3,2 km/h (1 Bft) 97,83 %
10.02.2022 17:00 7,9 C 7,2 C 4,4 C 92 % 1021,1 hPa 0,0 l/m 0 min 0 min 16 W/m 3,2 km/h (1 Bft) 97,87 %
10.02.2022 17:02 7,9 C 7,2 C 4,4 C 92 % 1021,1 hPa 0,0 l/m 0 min 2 min 17 W/m 0,0 km/h (0 Bft) 97,87 %
10.02.2022 17:04 7,9 C 7,2 C 4,4 C 93 % 1021,1 hPa 0,0 l/m 0 min 2 min 18 W/m 3,2 km/h (1 Bft) 97,87 %
10.02.2022 17:06 7,9 C 7,2 C 4,4 C 93 % 1021,1 hPa 0,0 l/m 0 min 2 min 16 W/m 0,0 km/h (0 Bft) 97,87 %
10.02.2022 17:08 7,8 C 7,2 C 4,4 C 93 % 1021,1 hPa 0,0 l/m 0 min 0 min 16 W/m 6,4 km/h (2 Bft) 97,87 %
10.02.2022 17:10 7,8 C 7,2 C 3,9 C 92 % 1021,2 hPa 0,0 l/m 0 min 0 min 16 W/m 6,4 km/h (2 Bft) 97,83 %
10.02.2022 17:12 7,7 C 6,7 C 3,9 C 92 % 1021,2 hPa 0,0 l/m 0 min 2 min 16 W/m 6,4 km/h (2 Bft) 95,74 %
10.02.2022 17:14 7,6 C 6,7 C 3,9 C 92 % 1021,2 hPa 0,0 l/m 0 min 2 min 12 W/m 6,4 km/h (2 Bft) 93,62 %
10.02.2022 17:16 7,6 C 6,7 C 3,9 C 92 % 1021,2 hPa 0,0 l/m 0 min 2 min 8 W/m 3,2 km/h (1 Bft) 95,74 %
10.02.2022 17:18 7,4 C 6,7 C 3,9 C 92 % 1021,1 hPa 0,0 l/m 0 min 2 min 6 W/m 3,2 km/h (1 Bft) 95,74 %
10.02.2022 17:20 7,4 C 6,7 C 3,9 C 92 % 1021,1 hPa 0,0 l/m 0 min 2 min 5 W/m 3,2 km/h (1 Bft) 97,87 %
10.02.2022 17:22 7,4 C 6,7 C 3,9 C 92 % 1021,1 hPa 0,0 l/m 0 min 2 min 0 W/m 9,7 km/h (2 Bft) 100,00 %
10.02.2022 17:24 7,3 C 6,7 C 3,9 C 92 % 1021,1 hPa 0,0 l/m 0 min 2 min 0 W/m 6,4 km/h (2 Bft) 100,00 %
10.02.2022 17:26 7,3 C 6,7 C 3,9 C 92 % 1021,1 hPa 0,0 l/m 0 min 0 min 0 W/m 6,4 km/h (2 Bft) 100,00 %
10.02.2022 17:28 7,2 C 6,1 C 3,3 C 92 % 1021,1 hPa 0,0 l/m 0 min 0 min 0 W/m 6,4 km/h (2 Bft) 100,00 %
10.02.2022 17:30 7,1 C 6,1 C 3,3 C 91 % 1021,1 hPa 0,0 l/m 0 min 0 min 0 W/m 6,4 km/h (2 Bft) 100,00 %
10.02.2022 17:32 7,1 C 6,1 C 3,3 C 91 % 1021,1 hPa 0,0 l/m 0 min 0 min 0 W/m 3,2 km/h (1 Bft) 100,00 %
10.02.2022 17:34 7,1 C 6,1 C 3,3 C 91 % 1021,1 hPa 0,0 l/m 0 min 2 min 0 W/m 3,2 km/h (1 Bft) 100,00 %
10.02.2022 17:36 7,0 C 6,1 C 3,3 C 91 % 1021,1 hPa 0,0 l/m 0 min 2 min 0 W/m 3,2 km/h (1 Bft) 97,87 %
10.02.2022 17:38 7,0 C 6,1 C 3,3 C 91 % 1021,1 hPa 0,0 l/m 0 min 2 min 0 W/m 3,2 km/h (1 Bft) 100,00 %
10.02.2022 17:40 7,0 C 6,1 C 3,3 C 91 % 1021,1 hPa 0,2 l/m 0 min 2 min 0 W/m 3,2 km/h (1 Bft) 100,00 %
10.02.2022 17:42 6,9 C 6,1 C 3,3 C 91 % 1021,1 hPa 0,0 l/m 0 min 2 min 0 W/m 3,2 km/h (1 Bft) 100,00 %
10.02.2022 17:44 6,9 C 6,1 C 3,3 C 91 % 1021,1 hPa 0,0 l/m 0 min 2 min 0 W/m 3,2 km/h (1 Bft) 100,00 %
10.02.2022 17:46 6,9 C 6,1 C 3,3 C 91 % 1021,1 hPa 0,0 l/m 0 min 2 min 0 W/m 3,2 km/h (1 Bft) 97,83 %
10.02.2022 17:48 6,9 C 6,1 C 3,3 C 92 % 1021,1 hPa 0,0 l/m 0 min 2 min 0 W/m 6,4 km/h (2 Bft) 98,15 %
10.02.2022 17:50 6,8 C 5,6 C 3,3 C 92 % 1021,1 hPa 0,0 l/m 0 min 2 min 0 W/m 3,2 km/h (1 Bft) 94,74 %
10.02.2022 17:52 6,8 C 5,6 C 3,3 C 92 % 1021,0 hPa 0,0 l/m 0 min 2 min 0 W/m 3,2 km/h (1 Bft) 97,96 %
10.02.2022 17:54 6,8 C 5,6 C 3,3 C 92 % 1021,0 hPa 0,0 l/m 0 min 2 min 0 W/m 3,2 km/h (1 Bft) 97,87 %
10.02.2022 17:56 6,8 C 5,6 C 3,3 C 92 % 1021,0 hPa 0,0 l/m 0 min 2 min 0 W/m 3,2 km/h (1 Bft) 97,87 %
10.02.2022 17:58 6,8 C 5,6 C 3,3 C 92 % 1021,0 hPa 0,0 l/m 0 min 0 min 0 W/m 3,2 km/h (1 Bft) 97,83 %
10.02.2022 18:00 6,7 C 5,6 C 3,3 C 92 % 1021,0 hPa 0,0 l/m 0 min 2 min 0 W/m 3,2 km/h (1 Bft) 97,87 %
10.02.2022 18:02 6,7 C 5,6 C 3,3 C 92 % 1021,0 hPa 0,0 l/m 0 min 2 min 0 W/m 3,2 km/h (1 Bft) 97,87 %
10.02.2022 18:04 6,7 C 5,6 C 3,3 C 92 % 1021,1 hPa 0,0 l/m 0 min 2 min 0 W/m 6,4 km/h (2 Bft) 95,74 %
10.02.2022 18:08 6,6 C 5,6 C 3,3 C 92 % 1021,0 hPa 0,0 l/m 0 min 0 min 0 W/m 6,4 km/h (2 Bft) 94,62 %
10.02.2022 18:10 6,6 C 5,6 C 3,3 C 92 % 1021,0 hPa 0,0 l/m 0 min 0 min 0 W/m 3,2 km/h (1 Bft) 95,74 %
10.02.2022 18:12 6,6 C 5,6 C 3,3 C 92 % 1021,0 hPa 0,0 l/m 0 min 0 min 0 W/m 6,4 km/h (2 Bft) 93,62 %
10.02.2022 18:14 6,6 C 5,6 C 3,3 C 93 % 1021,0 hPa 0,0 l/m 0 min 0 min 0 W/m 3,2 km/h (1 Bft) 92,59 %
10.02.2022 18:16 6,6 C 5,6 C 3,3 C 93 % 1021,0 hPa 0,0 l/m 0 min 0 min 0 W/m 3,2 km/h (1 Bft) 97,37 %
10.02.2022 18:18 6,6 C 5,6 C 3,3 C 93 % 1021,0 hPa 0,0 l/m 0 min 0 min 0 W/m 3,2 km/h (1 Bft) 97,87 %
10.02.2022 18:20 6,5 C 5,6 C 3,3 C 93 % 1021,0 hPa 0,0 l/m 0 min 0 min 0 W/m 3,2 km/h (1 Bft) 97,83 %
10.02.2022 18:22 6,5 C 5,6 C 3,3 C 93 % 1021,0 hPa 0,0 l/m 0 min 0 min 0 W/m 3,2 km/h (1 Bft) 97,87 %
10.02.2022 18:24 6,5 C 5,6 C 3,3 C 93 % 1021,0 hPa 0,0 l/m 0 min 0 min 0 W/m 0,0 km/h (0 Bft) 95,74 %
10.02.2022 18:26 6,5 C 5,6 C 3,3 C 93 % 1021,0 hPa 0,0 l/m 0 min 0 min 0 W/m 3,2 km/h (1 Bft) 97,87 %
10.02.2022 18:28 6,5 C 5,6 C 3,3 C 93 % 1021,0 hPa 0,0 l/m 0 min 0 min 0 W/m 0,0 km/h (0 Bft) 100,00 %
10.02.2022 18:30 6,5 C 5,6 C 3,3 C 93 % 1020,9 hPa 0,0 l/m 0 min 0 min 0 W/m 0,0 km/h (0 Bft) 97,87 %
10.02.2022 18:32 6,5 C 5,6 C 3,3 C 93 % 1020,9 hPa 0,0 l/m 0 min 0 min 0 W/m 3,2 km/h (1 Bft) 98,11 %
10.02.2022 18:34 6,5 C 5,6 C 3,3 C 93 % 1020,9 hPa 0,0 l/m 0 min 0 min 0 W/m 3,2 km/h (1 Bft) 97,87 %
10.02.2022 18:36 6,5 C 5,6 C 3,3 C 93 % 1020,9 hPa 0,0 l/m 0 min 0 min 0 W/m 3,2 km/h (1 Bft) 97,87 %
10.02.2022 18:38 6,5 C 5,6 C 3,3 C 93 % 1021,0 hPa 0,0 l/m 0 min 0 min 0 W/m 3,2 km/h (1 Bft) 95,74 %
10.02.2022 18:40 6,5 C 5,6 C 3,3 C 93 % 1020,9 hPa 0,0 l/m 0 min 0 min 0 W/m 3,2 km/h (1 Bft) 97,87 %
10.02.2022 18:42 6,4 C 5,6 C 3,3 C 93 % 1021,0 hPa 0,0 l/m 0 min 0 min 0 W/m 3,2 km/h (1 Bft) 97,83 %
10.02.2022 18:44 6,5 C 5,6 C 3,3 C 93 % 1021,0 hPa 0,0 l/m 0 min 0 min 0 W/m 6,4 km/h (2 Bft) 97,87 %
10.02.2022 18:46 6,4 C 5,6 C 3,3 C 93 % 1021,0 hPa 0,0 l/m 0 min 0 min 0 W/m 3,2 km/h (1 Bft) 95,74 %
10.02.2022 18:48 6,4 C 5,6 C 3,3 C 93 % 1021,1 hPa 0,0 l/m 0 min 0 min 0 W/m 3,2 km/h (1 Bft) 95,74 %
10.02.2022 18:50 6,4 C 5,6 C 3,3 C 93 % 1021,1 hPa 0,0 l/m 0 min 0 min 0 W/m 6,4 km/h (2 Bft) 95,74 %
10.02.2022 18:52 6,4 C 5,6 C 3,3 C 93 % 1021,1 hPa 0,0 l/m 0 min 0 min 0 W/m 3,2 km/h (1 Bft) 97,87 %
10.02.2022 18:54 6,4 C 5,6 C 3,3 C 93 % 1021,1 hPa 0,0 l/m 0 min 0 min 0 W/m 3,2 km/h (1 Bft) 97,83 %
10.02.2022 18:56 6,4 C 5,6 C 3,3 C 93 % 1021,1 hPa 0,0 l/m 0 min 0 min 0 W/m 3,2 km/h (1 Bft) 91,49 %
10.02.2022 18:58 6,4 C 5,6 C 3,3 C 93 % 1021,1 hPa 0,0 l/m 0 min 0 min 0 W/m 3,2 km/h (1 Bft) 95,74 %
10.02.2022 19:00 6,4 C 5,6 C 3,3 C 93 % 1021,1 hPa 0,0 l/m 0 min 0 min 0 W/m 3,2 km/h (1 Bft) 97,87 %
10.02.2022 19:02 6,4 C 5,6 C 3,3 C 93 % 1021,1 hPa 0,0 l/m 0 min 0 min 0 W/m 3,2 km/h (1 Bft) 94,59 %
10.02.2022 19:04 6,4 C 5,6 C 3,3 C 94 % 1021,1 hPa 0,0 l/m 0 min 0 min 0 W/m 3,2 km/h (1 Bft) 97,87 %
10.02.2022 19:06 6,4 C 5,6 C 3,3 C 94 % 1021,1 hPa 0,0 l/m 0 min 0 min 0 W/m 6,4 km/h (2 Bft) 97,87 %
10.02.2022 19:08 6,4 C 5,6 C 3,3 C 94 % 1021,1 hPa 0,0 l/m 0 min 0 min 0 W/m 0,0 km/h (0 Bft) 95,65 %
10.02.2022 19:10 6,4 C 5,6 C 3,3 C 94 % 1021,1 hPa 0,0 l/m 0 min 0 min 0 W/m 3,2 km/h (1 Bft) 97,87 %
10.02.2022 19:12 6,4 C 5,6 C 3,3 C 94 % 1021,2 hPa 0,0 l/m 0 min 0 min 0 W/m 6,4 km/h (2 Bft) 97,87 %
10.02.2022 19:14 6,3 C 5,6 C 3,3 C 94 % 1021,3 hPa 0,0 l/m 0 min 0 min 0 W/m 3,2 km/h (1 Bft) 97,87 %
10.02.2022 19:16 6,3 C 5,6 C 3,3 C 94 % 1021,3 hPa 0,0 l/m 0 min 0 min 0 W/m 9,7 km/h (2 Bft) 97,87 %
10.02.2022 19:18 6,3 C 5,6 C 3,3 C 94 % 1021,3 hPa 0,0 l/m 0 min 0 min 0 W/m 12,9 km/h (3 Bft) 95,74 %
10.02.2022 19:20 6,3 C 5,6 C 3,3 C 94 % 1021,4 hPa 0,0 l/m 0 min 0 min 0 W/m 9,7 km/h (2 Bft) 93,48 %
10.02.2022 19:22 6,3 C 5,6 C 3,3 C 94 % 1021,4 hPa 0,0 l/m 0 min 0 min 0 W/m 9,7 km/h (2 Bft) 97,87 %
10.02.2022 19:24 6,3 C 5,6 C 2,8 C 94 % 1021,4 hPa 0,0 l/m 0 min 0 min 0 W/m 6,4 km/h (2 Bft) 97,87 %
10.02.2022 19:26 6,3 C 5,6 C 2,8 C 94 % 1021,4 hPa 0,2 l/m 0 min 0 min 0 W/m 6,4 km/h (2 Bft) 97,87 %
10.02.2022 19:28 6,3 C 5,6 C 2,8 C 94 % 1021,5 hPa 0,0 l/m 0 min 0 min 0 W/m 16,1 km/h (3 Bft) 97,87 %
10.02.2022 19:30 6,2 C 5,6 C 2,8 C 93 % 1021,5 hPa 0,0 l/m 0 min 2 min 0 W/m 6,4 km/h (2 Bft) 97,87 %
10.02.2022 19:32 6,2 C 5,6 C 2,8 C 93 % 1021,6 hPa 0,0 l/m 0 min 2 min 0 W/m 16,1 km/h (3 Bft) 95,65 %
10.02.2022 19:34 6,1 C 5,6 C 2,8 C 93 % 1021,6 hPa 0,0 l/m 0 min 2 min 0 W/m 12,9 km/h (3 Bft) 93,62 %
10.02.2022 19:36 6,0 C 5,0 C 2,8 C 93 % 1021,6 hPa 0,0 l/m 0 min 2 min 0 W/m 12,9 km/h (3 Bft) 95,74 %
10.02.2022 19:38 5,9 C 5,0 C 2,8 C 93 % 1021,6 hPa 0,0 l/m 0 min 2 min 0 W/m 12,9 km/h (3 Bft) 95,74 %
10.02.2022 19:40 5,9 C 5,0 C 2,8 C 93 % 1021,8 hPa 0,0 l/m 0 min 2 min 0 W/m 12,9 km/h (3 Bft) 95,74 %
10.02.2022 19:42 5,8 C 5,0 C 2,2 C 93 % 1021,8 hPa 0,0 l/m 0 min 2 min 0 W/m 12,9 km/h (3 Bft) 97,87 %
10.02.2022 19:44 5,7 C 5,0 C 2,2 C 93 % 1021,8 hPa 0,0 l/m 0 min 2 min 0 W/m 9,7 km/h (2 Bft) 97,83 %
10.02.2022 19:46 5,6 C 5,0 C 2,2 C 93 % 1021,8 hPa 0,0 l/m 0 min 2 min 0 W/m 12,9 km/h (3 Bft) 95,74 %
10.02.2022 19:48 5,6 C 5,0 C 2,2 C 93 % 1021,9 hPa 0,2 l/m 0 min 2 min 0 W/m 12,9 km/h (3 Bft) 97,87 %
10.02.2022 19:50 5,4 C 4,4 C 2,2 C 93 % 1021,9 hPa 0,0 l/m 0 min 2 min 0 W/m 22,5 km/h (4 Bft) 97,87 %
10.02.2022 19:52 5,3 C 4,4 C 2,2 C 93 % 1021,8 hPa 0,0 l/m 0 min 2 min 0 W/m 9,7 km/h (2 Bft) 97,87 %
10.02.2022 19:54 5,3 C 4,4 C 2,2 C 93 % 1021,8 hPa 0,0 l/m 0 min 2 min 0 W/m 16,1 km/h (3 Bft) 95,65 %
10.02.2022 19:56 5,2 C 4,4 C 1,7 C 93 % 1021,8 hPa 0,0 l/m 0 min 2 min 0 W/m 16,1 km/h (3 Bft) 97,87 %
10.02.2022 19:58 5,2 C 4,4 C 1,7 C 93 % 1021,8 hPa 0,0 l/m 0 min 2 min 0 W/m 12,9 km/h (3 Bft) 100,00 %
10.02.2022 20:00 5,1 C 4,4 C 1,7 C 93 % 1021,8 hPa 0,0 l/m 0 min 0 min 0 W/m 12,9 km/h (3 Bft) 100,00 %
10.02.2022 20:02 5,1 C 4,4 C 1,7 C 93 % 1021,8 hPa 0,0 l/m 0 min 0 min 0 W/m 12,9 km/h (3 Bft) 97,87 %
10.02.2022 20:04 5,1 C 4,4 C 1,7 C 92 % 1021,8 hPa 0,0 l/m 0 min 0 min 0 W/m 16,1 km/h (3 Bft) 100,00 %
10.02.2022 20:06 5,1 C 4,4 C 1,7 C 93 % 1021,8 hPa 0,0 l/m 0 min 0 min 0 W/m 16,1 km/h (3 Bft) 100,00 %
10.02.2022 20:08 5,1 C 4,4 C 1,7 C 93 % 1021,8 hPa 0,0 l/m 0 min 0 min 0 W/m 16,1 km/h (3 Bft) 100,00 %
10.02.2022 20:10 5,1 C 4,4 C 1,7 C 92 % 1021,8 hPa 0,0 l/m 0 min 0 min 0 W/m 9,7 km/h (2 Bft) 100,00 %
10.02.2022 20:12 5,1 C 4,4 C 1,7 C 92 % 1021,9 hPa 0,0 l/m 0 min 0 min 0 W/m 12,9 km/h (3 Bft) 100,00 %
10.02.2022 20:14 5,1 C 4,4 C 1,7 C 92 % 1021,9 hPa 0,0 l/m 0 min 0 min 0 W/m 6,4 km/h (2 Bft) 100,00 %
10.02.2022 20:16 5,1 C 4,4 C 1,7 C 92 % 1021,9 hPa 0,0 l/m 0 min 2 min 0 W/m 16,1 km/h (3 Bft) 100,00 %
10.02.2022 20:18 5,1 C 4,4 C 1,7 C 92 % 1021,9 hPa 0,2 l/m 0 min 2 min 0 W/m 12,9 km/h (3 Bft) 100,00 %
10.02.2022 20:20 5,1 C 4,4 C 1,7 C 92 % 1021,9 hPa 0,0 l/m 0 min 2 min 0 W/m 16,1 km/h (3 Bft) 100,00 %
10.02.2022 20:22 5,1 C 4,4 C 1,7 C 92 % 1021,9 hPa 0,0 l/m 0 min 2 min 0 W/m 16,1 km/h (3 Bft) 97,87 %
10.02.2022 20:24 5,1 C 4,4 C 1,7 C 92 % 1021,9 hPa 0,0 l/m 0 min 2 min 0 W/m 16,1 km/h (3 Bft) 100,00 %
10.02.2022 20:26 5,1 C 4,4 C 1,7 C 92 % 1022,0 hPa 0,0 l/m 0 min 2 min 0 W/m 19,3 km/h (3 Bft) 100,00 %
10.02.2022 20:28 5,1 C 4,4 C 1,7 C 92 % 1022,1 hPa 0,0 l/m 0 min 2 min 0 W/m 22,5 km/h (4 Bft) 100,00 %
10.02.2022 20:30 5,1 C 4,4 C 1,7 C 92 % 1022,1 hPa 0,0 l/m 0 min 2 min 0 W/m 12,9 km/h (3 Bft) 100,00 %
10.02.2022 20:32 5,1 C 4,4 C 1,7 C 92 % 1022,2 hPa 0,0 l/m 0 min 2 min 0 W/m 22,5 km/h (4 Bft) 97,87 %
10.02.2022 20:34 5,0 C 4,4 C 1,7 C 91 % 1022,1 hPa 0,0 l/m 0 min 2 min 0 W/m 25,7 km/h (4 Bft) 100,00 %
10.02.2022 20:36 4,9 C 4,4 C 1,7 C 91 % 1022,1 hPa 0,0 l/m 0 min 2 min 0 W/m 22,5 km/h (4 Bft) 100,00 %
10.02.2022 20:38 4,9 C 4,4 C 1,7 C 91 % 1022,2 hPa 0,0 l/m 0 min 2 min 0 W/m 12,9 km/h (3 Bft) 100,00 %
10.02.2022 20:40 4,9 C 4,4 C 1,7 C 91 % 1022,1 hPa 0,0 l/m 0 min 2 min 0 W/m 19,3 km/h (3 Bft) 100,00 %
10.02.2022 20:42 4,9 C 4,4 C 1,7 C 91 % 1022,1 hPa 0,2 l/m 0 min 2 min 0 W/m 19,3 km/h (3 Bft) 100,00 %
10.02.2022 20:44 4,8 C 4,4 C 1,7 C 91 % 1022,2 hPa 0,0 l/m 0 min 2 min 0 W/m 16,1 km/h (3 Bft) 100,00 %
10.02.2022 20:46 4,8 C 3,9 C 1,7 C 91 % 1022,2 hPa 0,0 l/m 0 min 2 min 0 W/m 12,9 km/h (3 Bft) 100,00 %
10.02.2022 20:48 4,8 C 3,9 C 1,7 C 91 % 1022,1 hPa 0,0 l/m 0 min 2 min 0 W/m 9,7 km/h (2 Bft) 100,00 %
10.02.2022 20:50 4,8 C 3,9 C 1,7 C 91 % 1022,2 hPa 0,0 l/m 0 min 2 min 0 W/m 9,7 km/h (2 Bft) 100,00 %
10.02.2022 20:52 4,8 C 3,9 C 1,7 C 91 % 1022,3 hPa 0,0 l/m 0 min 2 min 0 W/m 6,4 km/h (2 Bft) 100,00 %
10.02.2022 20:54 4,8 C 3,9 C 1,7 C 92 % 1022,2 hPa 0,0 l/m 0 min 2 min 0 W/m 16,1 km/h (3 Bft) 100,00 %
10.02.2022 20:56 4,7 C 3,9 C 1,7 C 92 % 1022,3 hPa 0,0 l/m 0 min 2 min 0 W/m 16,1 km/h (3 Bft) 97,87 %
10.02.2022 20:58 4,7 C 3,9 C 1,1 C 92 % 1022,3 hPa 0,0 l/m 0 min 2 min 0 W/m 16,1 km/h (3 Bft) 100,00 %
10.02.2022 21:00 4,7 C 3,9 C 1,1 C 92 % 1022,3 hPa 0,0 l/m 0 min 2 min 0 W/m 19,3 km/h (3 Bft) 100,00 %
10.02.2022 21:02 4,6 C 3,9 C 1,1 C 92 % 1022,4 hPa 0,0 l/m 0 min 2 min 0 W/m 12,9 km/h (3 Bft) 100,00 %
10.02.2022 21:04 4,6 C 3,9 C 1,1 C 92 % 1022,4 hPa 0,0 l/m 0 min 2 min 0 W/m 12,9 km/h (3 Bft) 97,83 %
10.02.2022 21:06 4,5 C 3,9 C 1,1 C 92 % 1022,4 hPa 0,0 l/m 0 min 2 min 0 W/m 22,5 km/h (4 Bft) 97,87 %
10.02.2022 21:08 4,5 C 3,9 C 1,1 C 92 % 1022,5 hPa 0,0 l/m 0 min 2 min 0 W/m 12,9 km/h (3 Bft) 100,00 %
10.02.2022 21:10 4,4 C 3,9 C 1,1 C 92 % 1022,4 hPa 0,2 l/m 0 min 2 min 0 W/m 29,0 km/h (5 Bft) 97,87 %
10.02.2022 21:12 4,4 C 3,9 C 1,1 C 92 % 1022,5 hPa 0,0 l/m 0 min 2 min 0 W/m 22,5 km/h (4 Bft) 97,87 %
10.02.2022 21:14 4,3 C 3,9 C 1,1 C 92 % 1022,4 hPa 0,0 l/m 0 min 2 min 0 W/m 29,0 km/h (5 Bft) 94,00 %
10.02.2022 21:16 4,3 C 3,3 C 1,1 C 92 % 1022,5 hPa 0,0 l/m 0 min 2 min 0 W/m 22,5 km/h (4 Bft) 95,74 %
10.02.2022 21:18 4,3 C 3,3 C 1,1 C 92 % 1022,5 hPa 0,0 l/m 0 min 2 min 0 W/m 19,3 km/h (3 Bft) 97,83 %
10.02.2022 21:20 4,3 C 3,3 C 1,1 C 92 % 1022,5 hPa 0,0 l/m 0 min 2 min 0 W/m 9,7 km/h (2 Bft) 95,74 %
10.02.2022 21:22 4,2 C 3,3 C 1,1 C 92 % 1022,6 hPa 0,0 l/m 0 min 2 min 0 W/m 12,9 km/h (3 Bft) 97,87 %
10.02.2022 21:24 4,2 C 3,3 C 1,1 C 92 % 1022,6 hPa 0,0 l/m 0 min 2 min 0 W/m 16,1 km/h (3 Bft) 93,62 %
10.02.2022 21:26 4,1 C 3,3 C 1,1 C 92 % 1022,5 hPa 0,0 l/m 0 min 2 min 0 W/m 12,9 km/h (3 Bft) 95,74 %
10.02.2022 21:28 4,1 C 3,3 C 1,1 C 92 % 1022,5 hPa 0,0 l/m 0 min 2 min 0 W/m 6,4 km/h (2 Bft) 95,74 %
10.02.2022 21:30 4,1 C 3,3 C 1,1 C 92 % 1022,5 hPa 0,2 l/m 0 min 0 min 0 W/m 12,9 km/h (3 Bft) 95,65 %
10.02.2022 21:32 4,1 C 3,3 C 1,1 C 92 % 1022,5 hPa 0,0 l/m 0 min 2 min 0 W/m 9,7 km/h (2 Bft) 95,74 %
10.02.2022 21:34 4,1 C 3,3 C 1,1 C 92 % 1022,6 hPa 0,0 l/m 0 min 2 min 0 W/m 12,9 km/h (3 Bft) 95,74 %
10.02.2022 21:36 4,1 C 3,3 C 1,1 C 92 % 1022,5 hPa 0,0 l/m 0 min 2 min 0 W/m 6,4 km/h (2 Bft) 95,74 %
10.02.2022 21:38 4,0 C 3,3 C 1,1 C 93 % 1022,5 hPa 0,0 l/m 0 min 2 min 0 W/m 6,4 km/h (2 Bft) 93,62 %
10.02.2022 21:40 4,0 C 3,3 C 1,1 C 93 % 1022,5 hPa 0,0 l/m 0 min 2 min 0 W/m 6,4 km/h (2 Bft) 97,83 %
10.02.2022 21:42 4,0 C 3,3 C 1,1 C 93 % 1022,5 hPa 0,0 l/m 0 min 0 min 0 W/m 6,4 km/h (2 Bft) 94,44 %
10.02.2022 21:44 4,0 C 3,3 C 1,1 C 93 % 1022,5 hPa 0,0 l/m 0 min 2 min 0 W/m 6,4 km/h (2 Bft) 95,65 %
10.02.2022 21:46 4,0 C 3,3 C 1,1 C 93 % 1022,5 hPa 0,0 l/m 0 min 2 min 0 W/m 6,4 km/h (2 Bft) 94,92 %
10.02.2022 21:48 4,0 C 3,3 C 1,1 C 93 % 1022,5 hPa 0,0 l/m 0 min 2 min 0 W/m 6,4 km/h (2 Bft) 97,14 %
10.02.2022 21:50 4,0 C 3,3 C 1,1 C 93 % 1022,5 hPa 0,0 l/m 0 min 2 min 0 W/m 3,2 km/h (1 Bft) 97,87 %
10.02.2022 21:52 4,0 C 3,3 C 1,1 C 93 % 1022,5 hPa 0,0 l/m 0 min 2 min 0 W/m 3,2 km/h (1 Bft) 93,62 %
10.02.2022 21:54 4,0 C 3,3 C 1,1 C 93 % 1022,5 hPa 0,0 l/m 0 min 2 min 0 W/m 6,4 km/h (2 Bft) 95,74 %
10.02.2022 21:56 3,9 C 3,3 C 1,1 C 93 % 1022,5 hPa 0,0 l/m 0 min 2 min 0 W/m 6,4 km/h (2 Bft) 93,48 %
10.02.2022 21:58 3,9 C 3,3 C 1,1 C 93 % 1022,5 hPa 0,0 l/m 0 min 2 min 0 W/m 6,4 km/h (2 Bft) 95,74 %
10.02.2022 22:00 3,9 C 3,3 C 1,1 C 93 % 1022,6 hPa 0,0 l/m 0 min 2 min 0 W/m 6,4 km/h (2 Bft) 96,61 %
10.02.2022 22:02 3,9 C 3,3 C 1,1 C 93 % 1022,5 hPa 0,0 l/m 0 min 2 min 0 W/m 6,4 km/h (2 Bft) 94,29 %
10.02.2022 22:04 3,9 C 3,3 C 1,1 C 93 % 1022,6 hPa 0,0 l/m 0 min 2 min 0 W/m 6,4 km/h (2 Bft) 95,74 %
10.02.2022 22:06 3,9 C 3,3 C 1,1 C 93 % 1022,5 hPa 0,0 l/m 0 min 2 min 0 W/m 6,4 km/h (2 Bft) 97,87 %
10.02.2022 22:08 3,9 C 3,3 C 1,1 C 94 % 1022,5 hPa 0,0 l/m 0 min 0 min 0 W/m 6,4 km/h (2 Bft) 97,83 %
10.02.2022 22:10 3,9 C 3,3 C 1,1 C 94 % 1022,4 hPa 0,0 l/m 0 min 0 min 0 W/m 9,7 km/h (2 Bft) 97,87 %
10.02.2022 22:12 3,9 C 3,3 C 1,1 C 94 % 1022,4 hPa 0,2 l/m 0 min 0 min 0 W/m 6,4 km/h (2 Bft) 97,87 %
10.02.2022 22:14 3,9 C 3,3 C 1,1 C 94 % 1022,5 hPa 0,0 l/m 0 min 0 min 0 W/m 3,2 km/h (1 Bft) 95,74 %
10.02.2022 22:16 3,9 C 3,3 C 1,1 C 94 % 1022,5 hPa 0,0 l/m 0 min 0 min 0 W/m 6,4 km/h (2 Bft) 97,87 %
10.02.2022 22:18 3,9 C 3,3 C 1,1 C 94 % 1022,5 hPa 0,0 l/m 0 min 0 min 0 W/m 6,4 km/h (2 Bft) 95,74 %
10.02.2022 22:20 3,9 C 3,3 C 1,1 C 94 % 1022,5 hPa 0,0 l/m 0 min 0 min 0 W/m 3,2 km/h (1 Bft) 97,83 %
10.02.2022 22:22 3,9 C 3,3 C 1,1 C 94 % 1022,5 hPa 0,0 l/m 0 min 0 min 0 W/m 6,4 km/h (2 Bft) 97,87 %
10.02.2022 22:24 3,8 C 3,3 C 1,1 C 94 % 1022,6 hPa 0,0 l/m 0 min 2 min 0 W/m 12,9 km/h (3 Bft) 97,87 %
10.02.2022 22:26 3,8 C 3,3 C 1,1 C 94 % 1022,6 hPa 0,0 l/m 0 min 2 min 0 W/m 6,4 km/h (2 Bft) 97,87 %
10.02.2022 22:28 3,8 C 3,3 C 1,1 C 94 % 1022,5 hPa 0,0 l/m 0 min 2 min 0 W/m 9,7 km/h (2 Bft) 97,87 %
10.02.2022 22:30 3,8 C 3,3 C 1,1 C 94 % 1022,5 hPa 0,0 l/m 0 min 2 min 0 W/m 12,9 km/h (3 Bft) 95,74 %
10.02.2022 22:32 3,7 C 2,8 C 1,1 C 94 % 1022,5 hPa 0,0 l/m 0 min 0 min 0 W/m 9,7 km/h (2 Bft) 97,83 %
10.02.2022 22:34 3,7 C 2,8 C 1,1 C 94 % 1022,5 hPa 0,0 l/m 0 min 0 min 0 W/m 9,7 km/h (2 Bft) 97,87 %
10.02.2022 22:36 3,7 C 2,8 C 0,6 C 94 % 1022,5 hPa 0,0 l/m 0 min 0 min 0 W/m 12,9 km/h (3 Bft) 97,87 %
10.02.2022 22:38 3,7 C 2,8 C 0,6 C 94 % 1022,5 hPa 0,0 l/m 0 min 0 min 0 W/m 16,1 km/h (3 Bft) 97,87 %
10.02.2022 22:40 3,7 C 2,8 C 0,6 C 94 % 1022,5 hPa 0,0 l/m 0 min 0 min 0 W/m 9,7 km/h (2 Bft) 97,87 %
10.02.2022 22:42 3,7 C 2,8 C 1,1 C 94 % 1022,5 hPa 0,0 l/m 0 min 0 min 0 W/m 6,4 km/h (2 Bft) 98,11 %
10.02.2022 22:44 3,7 C 2,8 C 1,1 C 94 % 1022,5 hPa 0,0 l/m 0 min 0 min 0 W/m 6,4 km/h (2 Bft) 97,87 %
10.02.2022 22:46 3,6 C 2,8 C 1,1 C 94 % 1022,5 hPa 0,0 l/m 0 min 0 min 0 W/m 12,9 km/h (3 Bft) 97,87 %
10.02.2022 22:48 3,6 C 2,8 C 1,1 C 94 % 1022,5 hPa 0,0 l/m 0 min 0 min 0 W/m 6,4 km/h (2 Bft) 100,00 %
10.02.2022 22:50 3,6 C 2,8 C 1,1 C 94 % 1022,5 hPa 0,0 l/m 0 min 0 min 0 W/m 16,1 km/h (3 Bft) 97,87 %
10.02.2022 22:52 3,6 C 2,8 C 0,6 C 94 % 1022,5 hPa 0,0 l/m 0 min 0 min 0 W/m 19,3 km/h (3 Bft) 95,65 %
10.02.2022 22:54 3,6 C 2,8 C 1,1 C 94 % 1022,6 hPa 0,0 l/m 0 min 0 min 0 W/m 9,7 km/h (2 Bft) 97,87 %
10.02.2022 22:56 3,6 C 2,8 C 1,1 C 94 % 1022,6 hPa 0,0 l/m 0 min 2 min 0 W/m 12,9 km/h (3 Bft) 95,74 %
10.02.2022 22:58 3,6 C 2,8 C 1,1 C 94 % 1022,6 hPa 0,0 l/m 0 min 2 min 0 W/m 19,3 km/h (3 Bft) 97,87 %
10.02.2022 23:00 3,6 C 2,8 C 1,1 C 94 % 1022,6 hPa 0,0 l/m 0 min 2 min 0 W/m 12,9 km/h (3 Bft) 97,87 %
10.02.2022 23:02 3,6 C 2,8 C 1,1 C 95 % 1022,7 hPa 0,0 l/m 0 min 2 min 0 W/m 16,1 km/h (3 Bft) 95,92 %
10.02.2022 23:04 3,6 C 2,8 C 1,1 C 95 % 1022,7 hPa 0,0 l/m 0 min 2 min 0 W/m 9,7 km/h (2 Bft) 97,83 %
10.02.2022 23:06 3,6 C 2,8 C 1,1 C 95 % 1022,7 hPa 0,0 l/m 0 min 2 min 0 W/m 12,9 km/h (3 Bft) 97,87 %
10.02.2022 23:08 3,6 C 2,8 C 1,1 C 95 % 1022,6 hPa 0,2 l/m 0 min 2 min 0 W/m 22,5 km/h (4 Bft) 95,74 %
10.02.2022 23:10 3,6 C 2,8 C 1,1 C 95 % 1022,6 hPa 0,0 l/m 0 min 2 min 0 W/m 19,3 km/h (3 Bft) 97,87 %
10.02.2022 23:12 3,6 C 2,8 C 1,1 C 95 % 1022,6 hPa 0,0 l/m 0 min 2 min 0 W/m 12,9 km/h (3 Bft) 97,87 %
10.02.2022 23:14 3,6 C 2,8 C 1,1 C 95 % 1022,6 hPa 0,0 l/m 0 min 2 min 0 W/m 19,3 km/h (3 Bft) 97,87 %
10.02.2022 23:16 3,6 C 2,8 C 1,1 C 95 % 1022,7 hPa 0,0 l/m 0 min 0 min 0 W/m 19,3 km/h (3 Bft) 97,83 %
10.02.2022 23:18 3,6 C 2,8 C 0,6 C 95 % 1022,6 hPa 0,0 l/m 0 min 0 min 0 W/m 16,1 km/h (3 Bft) 97,87 %
10.02.2022 23:20 3,6 C 2,8 C 0,6 C 95 % 1022,6 hPa 0,0 l/m 0 min 0 min 0 W/m 16,1 km/h (3 Bft) 97,87 %
10.02.2022 23:22 3,5 C 2,8 C 0,6 C 95 % 1022,7 hPa 0,0 l/m 0 min 0 min 0 W/m 22,5 km/h (4 Bft) 97,92 %
10.02.2022 23:24 3,5 C 2,8 C 0,6 C 95 % 1022,7 hPa 0,0 l/m 0 min 0 min 0 W/m 19,3 km/h (3 Bft) 100,00 %
10.02.2022 23:26 3,5 C 2,8 C 0,6 C 95 % 1022,6 hPa 0,0 l/m 0 min 0 min 0 W/m 19,3 km/h (3 Bft) 100,00 %
10.02.2022 23:28 3,5 C 2,8 C 0,6 C 95 % 1022,6 hPa 0,0 l/m 0 min 0 min 0 W/m 16,1 km/h (3 Bft) 100,00 %
10.02.2022 23:30 3,5 C 2,8 C 0,6 C 95 % 1022,6 hPa 0,0 l/m 0 min 0 min 0 W/m 12,9 km/h (3 Bft) 97,87 %
10.02.2022 23:32 3,4 C 2,8 C 0,6 C 95 % 1022,6 hPa 0,0 l/m 0 min 0 min 0 W/m 19,3 km/h (3 Bft) 100,00 %
10.02.2022 23:34 3,4 C 2,8 C 0,6 C 95 % 1022,6 hPa 0,0 l/m 0 min 0 min 0 W/m 16,1 km/h (3 Bft) 100,00 %
10.02.2022 23:36 3,4 C 2,8 C 0,6 C 95 % 1022,6 hPa 0,0 l/m 0 min 0 min 0 W/m 19,3 km/h (3 Bft) 100,00 %
10.02.2022 23:38 3,4 C 2,8 C 0,6 C 95 % 1022,6 hPa 0,0 l/m 0 min 0 min 0 W/m 9,7 km/h (2 Bft) 100,00 %
10.02.2022 23:40 3,4 C 2,8 C 0,6 C 95 % 1022,6 hPa 0,0 l/m 0 min 0 min 0 W/m 12,9 km/h (3 Bft) 97,83 %
10.02.2022 23:42 3,4 C 2,8 C 0,6 C 95 % 1022,6 hPa 0,0 l/m 0 min 0 min 0 W/m 16,1 km/h (3 Bft) 100,00 %
10.02.2022 23:44 3,4 C 2,8 C 0,6 C 95 % 1022,7 hPa 0,0 l/m 0 min 0 min 0 W/m 19,3 km/h (3 Bft) 100,00 %
10.02.2022 23:46 3,4 C 2,8 C 0,6 C 95 % 1022,7 hPa 0,0 l/m 0 min 0 min 0 W/m 19,3 km/h (3 Bft) 97,87 %
10.02.2022 23:48 3,4 C 2,8 C 0,6 C 95 % 1022,6 hPa 0,0 l/m 0 min 0 min 0 W/m 19,3 km/h (3 Bft) 97,87 %
10.02.2022 23:50 3,4 C 2,8 C 0,6 C 95 % 1022,6 hPa 0,0 l/m 0 min 0 min 0 W/m 16,1 km/h (3 Bft) 97,83 %
10.02.2022 23:52 3,4 C 2,8 C 0,6 C 95 % 1022,5 hPa 0,0 l/m 0 min 0 min 0 W/m 9,7 km/h (2 Bft) 95,74 %
10.02.2022 23:54 3,4 C 2,8 C 0,6 C 95 % 1022,6 hPa 0,0 l/m 0 min 0 min 0 W/m 9,7 km/h (2 Bft) 97,87 %
10.02.2022 23:56 3,4 C 2,8 C 0,6 C 95 % 1022,6 hPa 0,0 l/m 0 min 0 min 0 W/m 9,7 km/h (2 Bft) 97,87 %
10.02.2022 23:58 3,4 C 2,8 C 0,6 C 95 % 1022,5 hPa 0,0 l/m 0 min 0 min 0 W/m 9,7 km/h (2 Bft) 97,87 %
_ Min-Zeit 23:32 05:14 22:36 00:00 07:02 - - - - 00:02 00:02
Minimum _ 3,4 C 2,8 C 0,6 C 91 % 1019,1 hPa - - - - 0,0 km/h (0 Bft) 7,14 %
_ Max-Zeit 15:46 15:16 15:44 15:06 00:00 10:52 14:58 09:32 15:18 21:10 00:34
Maximum _ 8,3 C 10,6 C 5,6 C 99 % 1022,8 hPa 0,2 l/m 2 min 2 min 323 W/m 29,0 km/h
W (5 Bft)
100,00 %
Durchschnitt _ 6,0 C 5,4 C 2,9 C 95 % 1020,9 hPa #3,4 l/m #50 min. #5:12 h 61 W/m 7,5 km/h (2 Bft) 97,28 %
© 2022 W. Hausmann